Observation data for Caprock Canyons on 02/15/2017      Previous  Date  Next       Current Mesonet Observations  Soil Data  Daily Summary Page  Observations in Plain Language
KQU1 150600Z 29011KT 03/M01 A3017 RMK A01 T00321009  RH  075%=      5-min Rain = 0
KQU1 150601Z 29011KT 03/M01 A3017 RMK A01 T00321009  RH  074%=      5-min Rain = 0
KQU1 150602Z 29010KT 03/M01 A3017 RMK A01 T00321009  RH  074%=      5-min Rain = 0
KQU1 150603Z 29011KT 03/M01 A3017 RMK A01 T00321010  RH  074%=      5-min Rain = 0
KQU1 150604Z 28010KT 03/M01 A3017 RMK A01 T00321010  RH  074%=      5-min Rain = 0
KQU1 150605Z 29011KT 03/M01 A3017 RMK A01 T00321010  RH  074%=      5-min Rain = 0
KQU1 150606Z 29011KT 03/M01 A3017 RMK A01 T00321010  RH  074%=      5-min Rain = 0
KQU1 150607Z 29010KT 03/M01 A3017 RMK A01 T00331010  RH  073%=      5-min Rain = 0
KQU1 150608Z 29010KT 03/M01 A3017 RMK A01 T00331010  RH  073%=      5-min Rain = 0
KQU1 150609Z 29010KT 03/M01 A3017 RMK A01 T00321010  RH  073%=      5-min Rain = 0
KQU1 150610Z 29010KT 03/M01 A3017 RMK A01 T00321011  RH  073%=      5-min Rain = 0
KQU1 150611Z 29010KT 03/M01 A3017 RMK A01 T00331011  RH  073%=      5-min Rain = 0
KQU1 150612Z 29010KT 03/M01 A3017 RMK A01 T00331011  RH  073%=      5-min Rain = 0
KQU1 150613Z 29010KT 03/M01 A3017 RMK A01 T00331011  RH  073%=      5-min Rain = 0
KQU1 150614Z 29011KT 03/M01 A3017 RMK A01 T00321011  RH  073%=      5-min Rain = 0
KQU1 150615Z 29011KT 03/M01 A3017 RMK A01 T00331012  RH  073%=      5-min Rain = 0
KQU1 150616Z 29011KT 03/M01 A3017 RMK A01 T00331012  RH  072%=      5-min Rain = 0
KQU1 150617Z 29010KT 03/M01 A3017 RMK A01 T00341012  RH  072%=      5-min Rain = 0
KQU1 150618Z 29009KT 03/M01 A3017 RMK A01 T00331012  RH  072%=      5-min Rain = 0
KQU1 150619Z 29010KT 03/M01 A3017 RMK A01 T00331012  RH  072%=      5-min Rain = 0
KQU1 150620Z 29010KT 03/M01 A3017 RMK A01 T00331012  RH  072%=      5-min Rain = 0
KQU1 150621Z 29010KT 03/M01 A3017 RMK A01 T00331012  RH  072%=      5-min Rain = 0
KQU1 150622Z 29010KT 03/M01 A3017 RMK A01 T00331012  RH  072%=      5-min Rain = 0
KQU1 150623Z 29011KT 03/M01 A3017 RMK A01 T00341013  RH  072%=      5-min Rain = 0
KQU1 150624Z 29009KT 03/M01 A3017 RMK A01 T00341013  RH  072%=      5-min Rain = 0
KQU1 150625Z 29011KT 03/M01 A3017 RMK A01 T00341013  RH  071%=      5-min Rain = 0
KQU1 150626Z 29010KT 03/M01 A3017 RMK A01 T00341013  RH  071%=      5-min Rain = 0
KQU1 150627Z 29010KT 03/M01 A3017 RMK A01 T00341013  RH  071%=      5-min Rain = 0
KQU1 150628Z 29010KT 03/M01 A3017 RMK A01 T00341014  RH  071%=      5-min Rain = 0
KQU1 150629Z 29011KT 03/M01 A3017 RMK A01 T00341014  RH  071%=      5-min Rain = 0
KQU1 150630Z 29010KT 04/M01 A3017 RMK A01 T00351014  RH  071%=      5-min Rain = 0
KQU1 150631Z 29010KT 03/M01 A3017 RMK A01 T00341014  RH  071%=      5-min Rain = 0
KQU1 150632Z 29010KT 03/M01 A3017 RMK A01 T00341014  RH  070%=      5-min Rain = 0
KQU1 150633Z 29009KT 03/M02 A3017 RMK A01 T00341015  RH  070%=      5-min Rain = 0
KQU1 150634Z 29011KT 03/M02 A3017 RMK A01 T00341015  RH  070%=      5-min Rain = 0
KQU1 150635Z 29011KT 03/M02 A3017 RMK A01 T00341015  RH  070%=      5-min Rain = 0
KQU1 150636Z 29010KT 03/M02 A3017 RMK A01 T00341015  RH  070%=      5-min Rain = 0
KQU1 150637Z 29009KT 03/M02 A3017 RMK A01 T00341015  RH  070%=      5-min Rain = 0
KQU1 150638Z 29010KT 03/M02 A3017 RMK A01 T00331015  RH  070%=      5-min Rain = 0
KQU1 150639Z 29009KT 03/M02 A3017 RMK A01 T00341015  RH  070%=      5-min Rain = 0
KQU1 150640Z 29009KT 03/M02 A3017 RMK A01 T00341016  RH  070%=      5-min Rain = 0
KQU1 150641Z 29010KT 03/M02 A3017 RMK A01 T00341016  RH  070%=      5-min Rain = 0
KQU1 150642Z 29009KT 03/M02 A3017 RMK A01 T00341016  RH  070%=      5-min Rain = 0
KQU1 150643Z 29009KT 03/M02 A3017 RMK A01 T00341016  RH  070%=      5-min Rain = 0
KQU1 150644Z 29010KT 03/M02 A3017 RMK A01 T00341016  RH  070%=      5-min Rain = 0
KQU1 150645Z 29010KT 03/M02 A3017 RMK A01 T00331016  RH  070%=      5-min Rain = 0
KQU1 150646Z 29010KT 03/M02 A3017 RMK A01 T00341017  RH  069%=      5-min Rain = 0
KQU1 150647Z 29009KT 03/M02 A3017 RMK A01 T00341017  RH  069%=      5-min Rain = 0
KQU1 150648Z 29010KT 03/M02 A3017 RMK A01 T00341017  RH  070%=      5-min Rain = 0
KQU1 150649Z 29009KT 03/M02 A3017 RMK A01 T00341017  RH  069%=      5-min Rain = 0
KQU1 150650Z 29009KT 03/M02 A3017 RMK A01 T00341017  RH  069%=      5-min Rain = 0
KQU1 150651Z 29008KT 03/M02 A3017 RMK A01 T00341017  RH  069%=      5-min Rain = 0
KQU1 150652Z 29010KT 03/M02 A3017 RMK A01 T00341018  RH  069%=      5-min Rain = 0
KQU1 150653Z 29010KT 03/M02 A3017 RMK A01 T00341018  RH  069%=      5-min Rain = 0
KQU1 150654Z 29010KT 03/M02 A3017 RMK A01 T00341018  RH  069%=      5-min Rain = 0
KQU1 150655Z 28010KT 03/M02 A3017 RMK A01 T00341018  RH  069%=      5-min Rain = 0
KQU1 150656Z 29010KT 03/M02 A3017 RMK A01 T00341018  RH  069%=      5-min Rain = 0
KQU1 150657Z 29009KT 03/M02 A3017 RMK A01 T00341018  RH  069%=      5-min Rain = 0
KQU1 150658Z 29010KT 03/M02 A3017 RMK A01 T00341019  RH  068%=      5-min Rain = 0
KQU1 150659Z 29010KT 03/M02 A3017 RMK A01 T00341019  RH  068%=      5-min Rain = 0
KQU1 150700Z 29010KT 03/M02 A3017 RMK A01 T00341019  RH  068%=      5-min Rain = 0
KQU1 150701Z 29010KT 03/M02 A3017 RMK A01 T00341019  RH  068%=      5-min Rain = 0
KQU1 150702Z 29010KT 03/M02 A3017 RMK A01 T00331019  RH  069%=      5-min Rain = 0
KQU1 150703Z 29010KT 03/M02 A3017 RMK A01 T00331019  RH  069%=      5-min Rain = 0
KQU1 150704Z 29009KT 03/M02 A3017 RMK A01 T00331019  RH  069%=      5-min Rain = 0
KQU1 150705Z 29008KT 03/M02 A3017 RMK A01 T00331019  RH  069%=      5-min Rain = 0
KQU1 150706Z 29009KT 03/M02 A3017 RMK A01 T00321019  RH  069%=      5-min Rain = 0
KQU1 150707Z 29009KT 03/M02 A3017 RMK A01 T00321019  RH  069%=      5-min Rain = 0
KQU1 150708Z 28009KT 03/M02 A3017 RMK A01 T00321019  RH  069%=      5-min Rain = 0
KQU1 150709Z 29008KT 03/M02 A3017 RMK A01 T00321019  RH  069%=      5-min Rain = 0
KQU1 150710Z 28008KT 03/M02 A3017 RMK A01 T00311019  RH  070%=      5-min Rain = 0
KQU1 150711Z 28008KT 03/M02 A3017 RMK A01 T00311019  RH  070%=      5-min Rain = 0
KQU1 150712Z 29010KT 03/M02 A3017 RMK A01 T00311020  RH  069%=      5-min Rain = 0
KQU1 150713Z 28009KT 03/M02 A3017 RMK A01 T00311019  RH  069%=      5-min Rain = 0
KQU1 150714Z 29009KT 03/M02 A3017 RMK A01 T00311020  RH  069%=      5-min Rain = 0
KQU1 150715Z 28009KT 03/M02 A3017 RMK A01 T00311020  RH  069%=      5-min Rain = 0
KQU1 150716Z 29008KT 03/M02 A3017 RMK A01 T00311020  RH  070%=      5-min Rain = 0
KQU1 150717Z 28008KT 03/M02 A3017 RMK A01 T00301019  RH  070%=      5-min Rain = 0
KQU1 150718Z 28008KT 03/M02 A3017 RMK A01 T00301020  RH  070%=      5-min Rain = 0
KQU1 150719Z 28008KT 03/M02 A3017 RMK A01 T00291020  RH  070%=      5-min Rain = 0
KQU1 150720Z 28008KT 03/M02 A3017 RMK A01 T00291019  RH  071%=      5-min Rain = 0
KQU1 150721Z 28008KT 03/M02 A3017 RMK A01 T00281019  RH  071%=      5-min Rain = 0
KQU1 150722Z 28008KT 03/M02 A3017 RMK A01 T00271019  RH  072%=      5-min Rain = 0
KQU1 150723Z 28009KT 03/M02 A3018 RMK A01 T00261019  RH  072%=      5-min Rain = 0
KQU1 150724Z 28008KT 03/M02 A3018 RMK A01 T00261019  RH  072%=      5-min Rain = 0
KQU1 150725Z 28008KT 03/M02 A3018 RMK A01 T00261019  RH  072%=      5-min Rain = 0
KQU1 150726Z 28008KT 03/M02 A3018 RMK A01 T00261019  RH  072%=      5-min Rain = 0
KQU1 150727Z 28009KT 03/M02 A3018 RMK A01 T00251019  RH  073%=      5-min Rain = 0
KQU1 150728Z 28009KT 03/M02 A3018 RMK A01 T00251019  RH  073%=      5-min Rain = 0
KQU1 150729Z 28008KT 03/M02 A3018 RMK A01 T00251019  RH  073%=      5-min Rain = 0
KQU1 150730Z 28008KT 02/M02 A3018 RMK A01 T00241019  RH  073%=      5-min Rain = 0
KQU1 150731Z 28008KT 02/M02 A3018 RMK A01 T00231019  RH  074%=      5-min Rain = 0
KQU1 150732Z 28007KT 02/M02 A3018 RMK A01 T00231019  RH  074%=      5-min Rain = 0
KQU1 150733Z 28008KT 02/M02 A3018 RMK A01 T00231019  RH  074%=      5-min Rain = 0
KQU1 150734Z 28008KT 02/M02 A3018 RMK A01 T00231019  RH  074%=      5-min Rain = 0
KQU1 150735Z 29008KT 02/M02 A3018 RMK A01 T00231019  RH  074%=      5-min Rain = 0
KQU1 150736Z 28008KT 02/M02 A3018 RMK A01 T00231019  RH  074%=      5-min Rain = 0
KQU1 150737Z 28008KT 02/M02 A3018 RMK A01 T00231019  RH  073%=      5-min Rain = 0
KQU1 150738Z 28009KT 02/M02 A3018 RMK A01 T00241019  RH  073%=      5-min Rain = 0
KQU1 150739Z 28008KT 02/M02 A3018 RMK A01 T00241019  RH  073%=      5-min Rain = 0
KQU1 150740Z 29008KT 02/M02 A3018 RMK A01 T00241019  RH  073%=      5-min Rain = 0
KQU1 150741Z 29008KT 02/M02 A3018 RMK A01 T00241019  RH  073%=      5-min Rain = 0
KQU1 150742Z 29008KT 02/M02 A3018 RMK A01 T00241020  RH  073%=      5-min Rain = 0
KQU1 150743Z 29008KT 03/M02 A3018 RMK A01 T00251020  RH  072%=      5-min Rain = 0
KQU1 150744Z 29009KT 03/M02 A3018 RMK A01 T00251020  RH  072%=      5-min Rain = 0
KQU1 150745Z 29008KT 03/M02 A3018 RMK A01 T00251020  RH  072%=      5-min Rain = 0
KQU1 150746Z 28008KT 03/M02 A3018 RMK A01 T00251020  RH  072%=      5-min Rain = 0
KQU1 150747Z 28008KT 03/M02 A3018 RMK A01 T00261020  RH  072%=      5-min Rain = 0
KQU1 150748Z 29008KT 03/M02 A3018 RMK A01 T00251020  RH  072%=      5-min Rain = 0
KQU1 150749Z 28009KT 03/M02 A3018 RMK A01 T00251020  RH  072%=      5-min Rain = 0
KQU1 150750Z 28010KT 03/M02 A3018 RMK A01 T00251020  RH  072%=      5-min Rain = 0
KQU1 150751Z 28008KT 03/M02 A3018 RMK A01 T00251021  RH  072%=      5-min Rain = 0
KQU1 150752Z 28007KT 03/M02 A3018 RMK A01 T00251021  RH  072%=      5-min Rain = 0
KQU1 150753Z 28008KT 03/M02 A3018 RMK A01 T00251021  RH  072%=      5-min Rain = 0
KQU1 150754Z 28008KT 02/M02 A3018 RMK A01 T00241021  RH  072%=      5-min Rain = 0
KQU1 150755Z 28008KT 02/M02 A3018 RMK A01 T00231020  RH  073%=      5-min Rain = 0
KQU1 150756Z 28008KT 02/M02 A3018 RMK A01 T00221020  RH  073%=      5-min Rain = 0
KQU1 150757Z 28008KT 02/M02 A3018 RMK A01 T00221020  RH  074%=      5-min Rain = 0
KQU1 150758Z 28008KT 02/M02 A3018 RMK A01 T00211020  RH  074%=      5-min Rain = 0
KQU1 150759Z 28008KT 02/M02 A3018 RMK A01 T00201020  RH  074%=      5-min Rain = 0
KQU1 150800Z 28008KT 02/M02 A3018 RMK A01 T00201020  RH  075%=      5-min Rain = 0
KQU1 150801Z 28007KT 02/M02 A3018 RMK A01 T00201020  RH  075%=      5-min Rain = 0
KQU1 150802Z 28008KT 02/M02 A3018 RMK A01 T00191020  RH  075%=      5-min Rain = 0
KQU1 150803Z 28009KT 02/M02 A3018 RMK A01 T00191020  RH  075%=      5-min Rain = 0
KQU1 150804Z 28007KT 02/M02 A3018 RMK A01 T00191020  RH  075%=      5-min Rain = 0
KQU1 150805Z 28008KT 02/M02 A3018 RMK A01 T00201020  RH  075%=      5-min Rain = 0
KQU1 150806Z 28008KT 02/M02 A3018 RMK A01 T00201020  RH  075%=      5-min Rain = 0
KQU1 150807Z 29008KT 02/M02 A3018 RMK A01 T00201020  RH  075%=      5-min Rain = 0
KQU1 150808Z 29007KT 02/M02 A3019 RMK A01 T00211020  RH  074%=      5-min Rain = 0
KQU1 150809Z 29007KT 02/M02 A3019 RMK A01 T00211020  RH  074%=      5-min Rain = 0
KQU1 150810Z 29007KT 02/M02 A3019 RMK A01 T00211020  RH  074%=      5-min Rain = 0
KQU1 150811Z 28007KT 02/M02 A3019 RMK A01 T00221020  RH  074%=      5-min Rain = 0
KQU1 150812Z 29007KT 02/M02 A3019 RMK A01 T00221020  RH  073%=      5-min Rain = 0
KQU1 150813Z 29008KT 02/M02 A3019 RMK A01 T00231021  RH  073%=      5-min Rain = 0
KQU1 150814Z 29008KT 02/M02 A3019 RMK A01 T00241021  RH  072%=      5-min Rain = 0
KQU1 150815Z 29007KT 02/M02 A3019 RMK A01 T00241021  RH  072%=      5-min Rain = 0
KQU1 150816Z 28008KT 03/M02 A3019 RMK A01 T00251021  RH  072%=      5-min Rain = 0
KQU1 150817Z 29008KT 03/M02 A3019 RMK A01 T00251021  RH  072%=      5-min Rain = 0
KQU1 150818Z 29008KT 03/M02 A3019 RMK A01 T00251021  RH  071%=      5-min Rain = 0
KQU1 150819Z 29009KT 03/M02 A3019 RMK A01 T00251021  RH  072%=      5-min Rain = 0
KQU1 150820Z 29008KT 03/M02 A3019 RMK A01 T00251021  RH  072%=      5-min Rain = 0
KQU1 150821Z 29009KT 03/M02 A3019 RMK A01 T00251021  RH  071%=      5-min Rain = 0
KQU1 150822Z 29009KT 03/M02 A3019 RMK A01 T00261021  RH  071%=      5-min Rain = 0
KQU1 150823Z 29009KT 03/M02 A3019 RMK A01 T00261022  RH  071%=      5-min Rain = 0
KQU1 150824Z 29008KT 03/M02 A3019 RMK A01 T00261022  RH  071%=      5-min Rain = 0
KQU1 150825Z 29009KT 03/M02 A3019 RMK A01 T00261022  RH  071%=      5-min Rain = 0
KQU1 150826Z 29010KT 03/M02 A3019 RMK A01 T00261022  RH  071%=      5-min Rain = 0
KQU1 150827Z 29009KT 03/M02 A3019 RMK A01 T00261022  RH  071%=      5-min Rain = 0
KQU1 150828Z 29008KT 03/M02 A3019 RMK A01 T00261022  RH  071%=      5-min Rain = 0
KQU1 150829Z 28009KT 03/M02 A3019 RMK A01 T00261022  RH  071%=      5-min Rain = 0
KQU1 150830Z 29009KT 03/M02 A3019 RMK A01 T00251022  RH  071%=      5-min Rain = 0
KQU1 150831Z 29008KT 03/M02 A3019 RMK A01 T00261022  RH  071%=      5-min Rain = 0
KQU1 150832Z 29008KT 03/M02 A3019 RMK A01 T00251022  RH  071%=      5-min Rain = 0
KQU1 150833Z 28009KT 03/M02 A3019 RMK A01 T00251022  RH  071%=      5-min Rain = 0
KQU1 150834Z 29009KT 03/M02 A3019 RMK A01 T00251022  RH  071%=      5-min Rain = 0
KQU1 150835Z 28009KT 03/M02 A3019 RMK A01 T00251022  RH  071%=      5-min Rain = 0
KQU1 150836Z 28009KT 03/M02 A3019 RMK A01 T00251022  RH  071%=      5-min Rain = 0
KQU1 150837Z 28009KT 03/M02 A3019 RMK A01 T00251022  RH  071%=      5-min Rain = 0
KQU1 150838Z 28010KT 02/M02 A3019 RMK A01 T00241022  RH  071%=      5-min Rain = 0
KQU1 150839Z 29008KT 03/M02 A3019 RMK A01 T00251022  RH  071%=      5-min Rain = 0
KQU1 150840Z 28008KT 02/M02 A3019 RMK A01 T00241022  RH  071%=      5-min Rain = 0
KQU1 150841Z 29008KT 02/M02 A3019 RMK A01 T00241022  RH  072%=      5-min Rain = 0
KQU1 150842Z 28008KT 02/M02 A3019 RMK A01 T00241023  RH  071%=      5-min Rain = 0
KQU1 150843Z 29009KT 03/M02 A3019 RMK A01 T00251023  RH  071%=      5-min Rain = 0
KQU1 150844Z 28008KT 03/M02 A3019 RMK A01 T00251023  RH  071%=      5-min Rain = 0
KQU1 150845Z 28007KT 03/M02 A3019 RMK A01 T00251023  RH  071%=      5-min Rain = 0
KQU1 150846Z 28008KT 02/M02 A3019 RMK A01 T00241023  RH  071%=      5-min Rain = 0
KQU1 150847Z 28008KT 02/M02 A3019 RMK A01 T00231023  RH  072%=      5-min Rain = 0
KQU1 150848Z 28009KT 02/M02 A3019 RMK A01 T00231023  RH  072%=      5-min Rain = 0
KQU1 150849Z 28007KT 02/M02 A3019 RMK A01 T00221023  RH  072%=      5-min Rain = 0
KQU1 150850Z 28006KT 02/M02 A3019 RMK A01 T00211023  RH  073%=      5-min Rain = 0
KQU1 150851Z 28008KT 02/M02 A3019 RMK A01 T00211023  RH  073%=      5-min Rain = 0
KQU1 150852Z 28008KT 02/M02 A3019 RMK A01 T00201022  RH  073%=      5-min Rain = 0
KQU1 150853Z 28008KT 02/M02 A3019 RMK A01 T00201023  RH  073%=      5-min Rain = 0
KQU1 150854Z 28007KT 02/M02 A3019 RMK A01 T00201023  RH  073%=      5-min Rain = 0
KQU1 150855Z 28007KT 02/M02 A3019 RMK A01 T00201023  RH  073%=      5-min Rain = 0
KQU1 150856Z 28007KT 02/M02 A3019 RMK A01 T00201022  RH  074%=      5-min Rain = 0
KQU1 150857Z 28008KT 02/M02 A3019 RMK A01 T00191022  RH  074%=      5-min Rain = 0
KQU1 150858Z 28008KT 02/M02 A3019 RMK A01 T00191022  RH  074%=      5-min Rain = 0
KQU1 150859Z 28008KT 02/M02 A3019 RMK A01 T00191022  RH  074%=      5-min Rain = 0
KQU1 150900Z 28008KT 02/M02 A3019 RMK A01 T00191022  RH  074%=      5-min Rain = 0
KQU1 150901Z 28008KT 02/M02 A3019 RMK A01 T00191023  RH  074%=      5-min Rain = 0
KQU1 150902Z 29009KT 02/M02 A3019 RMK A01 T00201023  RH  073%=      5-min Rain = 0
KQU1 150903Z 28009KT 02/M02 A3019 RMK A01 T00211023  RH  073%=      5-min Rain = 0
KQU1 150904Z 29009KT 02/M02 A3019 RMK A01 T00211023  RH  073%=      5-min Rain = 0
KQU1 150905Z 28007KT 02/M02 A3019 RMK A01 T00211023  RH  073%=      5-min Rain = 0
KQU1 150906Z 29008KT 02/M02 A3019 RMK A01 T00211023  RH  073%=      5-min Rain = 0
KQU1 150907Z 28009KT 02/M02 A3019 RMK A01 T00211023  RH  072%=      5-min Rain = 0
KQU1 150908Z 29010KT 02/M02 A3019 RMK A01 T00221023  RH  072%=      5-min Rain = 0
KQU1 150909Z 29010KT 02/M02 A3019 RMK A01 T00221023  RH  072%=      5-min Rain = 0
KQU1 150910Z 29010KT 02/M02 A3019 RMK A01 T00231023  RH  072%=      5-min Rain = 0
KQU1 150911Z 29009KT 02/M02 A3019 RMK A01 T00231023  RH  072%=      5-min Rain = 0
KQU1 150912Z 29009KT 02/M02 A3019 RMK A01 T00231023  RH  072%=      5-min Rain = 0
KQU1 150913Z 29010KT 02/M02 A3019 RMK A01 T00221023  RH  072%=      5-min Rain = 0
KQU1 150914Z 29010KT 02/M02 A3019 RMK A01 T00231024  RH  071%=      5-min Rain = 0
KQU1 150915Z 29009KT 02/M02 A3019 RMK A01 T00231024  RH  071%=      5-min Rain = 0
KQU1 150916Z 29010KT 02/M02 A3019 RMK A01 T00231024  RH  072%=      5-min Rain = 0
KQU1 150917Z 29008KT 02/M02 A3019 RMK A01 T00221023  RH  072%=      5-min Rain = 0
KQU1 150918Z 29009KT 02/M02 A3019 RMK A01 T00221024  RH  072%=      5-min Rain = 0
KQU1 150919Z 29010KT 02/M02 A3019 RMK A01 T00221024  RH  071%=      5-min Rain = 0
KQU1 150920Z 29010KT 02/M02 A3019 RMK A01 T00231024  RH  071%=      5-min Rain = 0
KQU1 150921Z 29009KT 02/M02 A3019 RMK A01 T00231024  RH  071%=      5-min Rain = 0
KQU1 150922Z 29009KT 02/M02 A3019 RMK A01 T00231024  RH  071%=      5-min Rain = 0
KQU1 150923Z 29009KT 02/M02 A3019 RMK A01 T00231024  RH  071%=      5-min Rain = 0
KQU1 150924Z 28009KT 02/M02 A3019 RMK A01 T00241024  RH  071%=      5-min Rain = 0
KQU1 150925Z 28008KT 02/M02 A3019 RMK A01 T00231024  RH  071%=      5-min Rain = 0
KQU1 150926Z 29009KT 02/M02 A3019 RMK A01 T00231024  RH  071%=      5-min Rain = 0
KQU1 150927Z 28009KT 02/M02 A3019 RMK A01 T00241024  RH  071%=      5-min Rain = 0
KQU1 150928Z 28009KT 02/M03 A3019 RMK A01 T00231025  RH  071%=      5-min Rain = 0
KQU1 150929Z 28008KT 02/M03 A3019 RMK A01 T00241025  RH  070%=      5-min Rain = 0
KQU1 150930Z 29009KT 02/M03 A3019 RMK A01 T00241025  RH  070%=      5-min Rain = 0
KQU1 150931Z 28009KT 02/M03 A3019 RMK A01 T00241025  RH  070%=      5-min Rain = 0
KQU1 150932Z 28008KT 02/M03 A3019 RMK A01 T00241025  RH  070%=      5-min Rain = 0
KQU1 150933Z 28008KT 02/M03 A3019 RMK A01 T00241025  RH  070%=      5-min Rain = 0
KQU1 150934Z 28007KT 02/M03 A3019 RMK A01 T00231025  RH  071%=      5-min Rain = 0
KQU1 150935Z 28007KT 02/M03 A3019 RMK A01 T00221025  RH  071%=      5-min Rain = 0
KQU1 150936Z 28007KT 02/M02 A3019 RMK A01 T00211024  RH  072%=      5-min Rain = 0
KQU1 150937Z 28008KT 02/M03 A3019 RMK A01 T00211025  RH  072%=      5-min Rain = 0
KQU1 150938Z 28007KT 02/M02 A3019 RMK A01 T00201024  RH  072%=      5-min Rain = 0
KQU1 150939Z 28007KT 02/M03 A3019 RMK A01 T00201025  RH  072%=      5-min Rain = 0
KQU1 150940Z 28007KT 02/M02 A3019 RMK A01 T00191024  RH  073%=      5-min Rain = 0
KQU1 150941Z 28006KT 02/M03 A3019 RMK A01 T00181025  RH  073%=      5-min Rain = 0
KQU1 150942Z 28007KT 02/M02 A3019 RMK A01 T00171024  RH  074%=      5-min Rain = 0
KQU1 150943Z 28008KT 02/M02 A3019 RMK A01 T00161024  RH  074%=      5-min Rain = 0
KQU1 150944Z 28008KT 02/M02 A3019 RMK A01 T00171024  RH  074%=      5-min Rain = 0
KQU1 150945Z 28007KT 02/M02 A3019 RMK A01 T00161024  RH  074%=      5-min Rain = 0
KQU1 150946Z 28008KT 02/M02 A3019 RMK A01 T00161024  RH  075%=      5-min Rain = 0
KQU1 150947Z 28008KT 02/M02 A3019 RMK A01 T00161024  RH  075%=      5-min Rain = 0
KQU1 150948Z 28008KT 02/M02 A3019 RMK A01 T00151024  RH  075%=      5-min Rain = 0
KQU1 150949Z 28008KT 02/M02 A3019 RMK A01 T00151024  RH  075%=      5-min Rain = 0
KQU1 150950Z 28007KT 02/M02 A3019 RMK A01 T00151024  RH  075%=      5-min Rain = 0
KQU1 150951Z 28008KT 01/M02 A3019 RMK A01 T00141024  RH  076%=      5-min Rain = 0
KQU1 150952Z 28007KT 01/M02 A3019 RMK A01 T00141024  RH  076%=      5-min Rain = 0
KQU1 150953Z 28008KT 01/M02 A3019 RMK A01 T00141024  RH  076%=      5-min Rain = 0
KQU1 150954Z 28008KT 01/M02 A3019 RMK A01 T00141024  RH  076%=      5-min Rain = 0
KQU1 150955Z 28007KT 02/M02 A3019 RMK A01 T00151024  RH  075%=      5-min Rain = 0
KQU1 150956Z 28008KT 02/M02 A3019 RMK A01 T00151024  RH  075%=      5-min Rain = 0
KQU1 150957Z 28008KT 02/M02 A3019 RMK A01 T00151024  RH  075%=      5-min Rain = 0
KQU1 150958Z 28008KT 02/M02 A3019 RMK A01 T00151024  RH  075%=      5-min Rain = 0
KQU1 150959Z 28008KT 02/M02 A3019 RMK A01 T00161024  RH  075%=      5-min Rain = 0
KQU1 151000Z 28007KT 02/M02 A3019 RMK A01 T00161024  RH  075%=      5-min Rain = 0
KQU1 151001Z 28007KT 02/M02 A3019 RMK A01 T00151024  RH  075%=      5-min Rain = 0
KQU1 151002Z 28007KT 02/M02 A3019 RMK A01 T00151024  RH  075%=      5-min Rain = 0
KQU1 151003Z 28008KT 01/M02 A3019 RMK A01 T00141024  RH  075%=      5-min Rain = 0
KQU1 151004Z 28009KT 01/M02 A3019 RMK A01 T00141024  RH  076%=      5-min Rain = 0
KQU1 151005Z 28008KT 01/M02 A3019 RMK A01 T00141024  RH  076%=      5-min Rain = 0
KQU1 151006Z 28008KT 01/M02 A3019 RMK A01 T00141024  RH  076%=      5-min Rain = 0
KQU1 151007Z 28008KT 01/M02 A3019 RMK A01 T00141024  RH  076%=      5-min Rain = 0
KQU1 151008Z 28008KT 01/M02 A3019 RMK A01 T00141024  RH  076%=      5-min Rain = 0
KQU1 151009Z 28009KT 01/M02 A3019 RMK A01 T00141024  RH  075%=      5-min Rain = 0
KQU1 151010Z 28009KT 02/M02 A3019 RMK A01 T00161024  RH  075%=      5-min Rain = 0
KQU1 151011Z 28007KT 02/M02 A3019 RMK A01 T00161024  RH  074%=      5-min Rain = 0
KQU1 151012Z 28007KT 02/M03 A3019 RMK A01 T00161025  RH  074%=      5-min Rain = 0
KQU1 151013Z 29007KT 02/M03 A3019 RMK A01 T00161025  RH  074%=      5-min Rain = 0
KQU1 151014Z 29009KT 02/M03 A3019 RMK A01 T00171025  RH  074%=      5-min Rain = 0
KQU1 151015Z 28009KT 02/M03 A3019 RMK A01 T00181025  RH  073%=      5-min Rain = 0
KQU1 151016Z 28010KT 02/M03 A3019 RMK A01 T00191025  RH  073%=      5-min Rain = 0
KQU1 151017Z 28010KT 02/M03 A3019 RMK A01 T00191025  RH  072%=      5-min Rain = 0
KQU1 151018Z 29009KT 02/M03 A3019 RMK A01 T00201025  RH  072%=      5-min Rain = 0
KQU1 151019Z 29010KT 02/M03 A3019 RMK A01 T00201026  RH  072%=      5-min Rain = 0
KQU1 151020Z 29010KT 02/M03 A3019 RMK A01 T00201026  RH  072%=      5-min Rain = 0
KQU1 151021Z 29009KT 02/M03 A3019 RMK A01 T00211026  RH  071%=      5-min Rain = 0
KQU1 151022Z 30008KT 02/M03 A3019 RMK A01 T00201025  RH  072%=      5-min Rain = 0
KQU1 151023Z 30008KT 02/M03 A3019 RMK A01 T00201026  RH  072%=      5-min Rain = 0
KQU1 151024Z 29008KT 02/M03 A3019 RMK A01 T00201026  RH  072%=      5-min Rain = 0
KQU1 151025Z 30008KT 02/M03 A3019 RMK A01 T00201026  RH  072%=      5-min Rain = 0
KQU1 151026Z 29008KT 02/M03 A3019 RMK A01 T00201026  RH  072%=      5-min Rain = 0
KQU1 151027Z 30008KT 02/M03 A3019 RMK A01 T00201026  RH  071%=      5-min Rain = 0
KQU1 151028Z 30008KT 02/M03 A3019 RMK A01 T00191026  RH  072%=      5-min Rain = 0
KQU1 151029Z 30007KT 02/M03 A302 RMK A01 T00191027  RH  072%=      5-min Rain = 0
KQU1 151030Z 30007KT 02/M03 A302 RMK A01 T00181027  RH  072%=      5-min Rain = 0
KQU1 151031Z 30007KT 02/M03 A3019 RMK A01 T00171027  RH  072%=      5-min Rain = 0
KQU1 151032Z 30007KT 02/M03 A3019 RMK A01 T00171027  RH  073%=      5-min Rain = 0
KQU1 151033Z 30005KT 02/M03 A302 RMK A01 T00161027  RH  073%=      5-min Rain = 0
KQU1 151034Z 30005KT 02/M03 A3019 RMK A01 T00161027  RH  073%=      5-min Rain = 0
KQU1 151035Z 30005KT 02/M03 A3019 RMK A01 T00151027  RH  073%=      5-min Rain = 0
KQU1 151036Z 31005KT 02/M03 A302 RMK A01 T00151027  RH  074%=      5-min Rain = 0
KQU1 151037Z 31006KT 01/M03 A302 RMK A01 T00141027  RH  074%=      5-min Rain = 0
KQU1 151038Z 31006KT 01/M03 A302 RMK A01 T00131028  RH  074%=      5-min Rain = 0
KQU1 151039Z 31005KT 01/M03 A302 RMK A01 T00131028  RH  074%=      5-min Rain = 0
KQU1 151040Z 31005KT 01/M03 A302 RMK A01 T00131028  RH  074%=      5-min Rain = 0
KQU1 151041Z 30006KT 01/M03 A302 RMK A01 T00131028  RH  074%=      5-min Rain = 0
KQU1 151042Z 30005KT 01/M03 A302 RMK A01 T00131028  RH  074%=      5-min Rain = 0
KQU1 151043Z 30005KT 01/M03 A302 RMK A01 T00131028  RH  075%=      5-min Rain = 0
KQU1 151044Z 31005KT 01/M03 A302 RMK A01 T00131028  RH  074%=      5-min Rain = 0
KQU1 151045Z 31005KT 01/M03 A302 RMK A01 T00121028  RH  075%=      5-min Rain = 0
KQU1 151046Z 31004KT 01/M03 A302 RMK A01 T00131028  RH  074%=      5-min Rain = 0
KQU1 151047Z 31004KT 01/M03 A302 RMK A01 T00131028  RH  074%=      5-min Rain = 0
KQU1 151048Z 31004KT 01/M03 A302 RMK A01 T00131028  RH  074%=      5-min Rain = 0
KQU1 151049Z 31005KT 01/M03 A302 RMK A01 T00131028  RH  074%=      5-min Rain = 0
KQU1 151050Z 31005KT 01/M03 A302 RMK A01 T00141028  RH  074%=      5-min Rain = 0
KQU1 151051Z 31005KT 01/M03 A302 RMK A01 T00141028  RH  074%=      5-min Rain = 0
KQU1 151052Z 31005KT 01/M03 A302 RMK A01 T00141028  RH  073%=      5-min Rain = 0
KQU1 151053Z 31006KT 02/M03 A302 RMK A01 T00151029  RH  073%=      5-min Rain = 0
KQU1 151054Z 31007KT 02/M03 A302 RMK A01 T00151029  RH  073%=      5-min Rain = 0
KQU1 151055Z 31006KT 02/M03 A302 RMK A01 T00161029  RH  072%=      5-min Rain = 0
KQU1 151056Z 31006KT 02/M03 A302 RMK A01 T00171029  RH  072%=      5-min Rain = 0
KQU1 151057Z 31005KT 02/M03 A302 RMK A01 T00161029  RH  072%=      5-min Rain = 0
KQU1 151058Z 31005KT 02/M03 A302 RMK A01 T00161029  RH  072%=      5-min Rain = 0
KQU1 151059Z 31006KT 02/M03 A302 RMK A01 T00151029  RH  072%=      5-min Rain = 0
KQU1 151100Z 31006KT 02/M03 A302 RMK A01 T00151029  RH  072%=      5-min Rain = 0
KQU1 151101Z 32005KT 02/M03 A302 RMK A01 T00151029  RH  072%=      5-min Rain = 0
KQU1 151102Z 32005KT 02/M03 A302 RMK A01 T00151029  RH  072%=      5-min Rain = 0
KQU1 151103Z 32005KT 02/M03 A302 RMK A01 T00151029  RH  072%=      5-min Rain = 0
KQU1 151104Z 31005KT 02/M03 A302 RMK A01 T00151030  RH  072%=      5-min Rain = 0
KQU1 151105Z 31005KT 01/M03 A302 RMK A01 T00141030  RH  073%=      5-min Rain = 0
KQU1 151106Z 32005KT 01/M03 A302 RMK A01 T00131029  RH  073%=      5-min Rain = 0
KQU1 151107Z 32005KT 01/M03 A302 RMK A01 T00141030  RH  073%=      5-min Rain = 0
KQU1 151108Z 32005KT 01/M03 A302 RMK A01 T00141030  RH  073%=      5-min Rain = 0
KQU1 151109Z 32006KT 02/M03 A302 RMK A01 T00151030  RH  072%=      5-min Rain = 0
KQU1 151110Z 34005KT 02/M03 A302 RMK A01 T00171029  RH  072%=      5-min Rain = 0
KQU1 151111Z 34005KT 02/M03 A302 RMK A01 T00181029  RH  071%=      5-min Rain = 0
KQU1 151112Z 34004KT 02/M03 A302 RMK A01 T00191029  RH  070%=      5-min Rain = 0
KQU1 151113Z 35004KT 02/M03 A302 RMK A01 T00201030  RH  070%=      5-min Rain = 0
KQU1 151114Z 33004KT 02/M03 A302 RMK A01 T00201030  RH  069%=      5-min Rain = 0
KQU1 151115Z 34005KT 02/M03 A302 RMK A01 T00221028  RH  070%=      5-min Rain = 0
KQU1 151116Z 34006KT 02/M03 A302 RMK A01 T00241029  RH  068%=      5-min Rain = 0
KQU1 151117Z 33005KT 03/M03 A302 RMK A01 T00271030  RH  066%=      5-min Rain = 0
KQU1 151118Z 34005KT 03/M03 A302 RMK A01 T00291030  RH  065%=      5-min Rain = 0
KQU1 151119Z 34004KT 03/M03 A302 RMK A01 T00301027  RH  066%=      5-min Rain = 0
KQU1 151120Z 34005KT 03/M03 A302 RMK A01 T00301028  RH  066%=      5-min Rain = 0
KQU1 151121Z 34007KT 03/M03 A302 RMK A01 T00311029  RH  065%=      5-min Rain = 0
KQU1 151122Z 33007KT 03/M03 A302 RMK A01 T00331032  RH  063%=      5-min Rain = 0
KQU1 151123Z 34007KT 03/M03 A302 RMK A01 T00341032  RH  062%=      5-min Rain = 0
KQU1 151124Z 34005KT 04/M03 A302 RMK A01 T00361031  RH  062%=      5-min Rain = 0
KQU1 151125Z 33007KT 04/M03 A302 RMK A01 T00361031  RH  062%=      5-min Rain = 0
KQU1 151126Z 34005KT 04/M03 A302 RMK A01 T00361032  RH  061%=      5-min Rain = 0
KQU1 151127Z 34007KT 04/M03 A302 RMK A01 T00361031  RH  061%=      5-min Rain = 0
KQU1 151128Z 34009KT 04/M03 A302 RMK A01 T00371031  RH  061%=      5-min Rain = 0
KQU1 151129Z 33009KT 04/M03 A302 RMK A01 T00381033  RH  060%=      5-min Rain = 0
KQU1 151130Z 33009KT 04/M03 A302 RMK A01 T00391033  RH  059%=      5-min Rain = 0
KQU1 151131Z 34007KT 04/M03 A302 RMK A01 T00391032  RH  060%=      5-min Rain = 0
KQU1 151132Z 33011KT 04/M03 A302 RMK A01 T00391034  RH  059%=      5-min Rain = 0
KQU1 151133Z 34009KT 04/M03 A302 RMK A01 T00401034  RH  058%=      5-min Rain = 0
KQU1 151134Z 34009KT 04/M03 A302 RMK A01 T00401033  RH  059%=      5-min Rain = 0
KQU1 151135Z 34008KT 04/M03 A302 RMK A01 T00411031  RH  060%=      5-min Rain = 0
KQU1 151136Z 34007KT 04/M03 A302 RMK A01 T00401031  RH  060%=      5-min Rain = 0
KQU1 151137Z 33007KT 04/M03 A302 RMK A01 T00401033  RH  059%=      5-min Rain = 0
KQU1 151138Z 33007KT 04/M03 A302 RMK A01 T00401032  RH  059%=      5-min Rain = 0
KQU1 151139Z 33007G12KT 04/M03 A302 RMK A01 T00401031  RH  060%=      5-min Rain = 0
KQU1 151140Z 33009KT 04/M03 A302 RMK A01 T00401034  RH  058%=      5-min Rain = 0
KQU1 151141Z 34008KT 04/M03 A302 RMK A01 T00401033  RH  059%=      5-min Rain = 0
KQU1 151142Z 34009KT 04/M03 A302 RMK A01 T00391034  RH  059%=      5-min Rain = 0
KQU1 151143Z 33009KT 04/M04 A302 RMK A01 T00401035  RH  058%=      5-min Rain = 0
KQU1 151144Z 34008KT 04/M03 A302 RMK A01 T00401034  RH  058%=      5-min Rain = 0
KQU1 151145Z 34008KT 04/M03 A302 RMK A01 T00411032  RH  059%=      5-min Rain = 0
KQU1 151146Z 32007KT 04/M03 A302 RMK A01 T00401033  RH  059%=      5-min Rain = 0
KQU1 151147Z 33005KT 04/M03 A302 RMK A01 T00391034  RH  059%=      5-min Rain = 0
KQU1 151148Z 34006KT 04/M03 A302 RMK A01 T00391034  RH  059%=      5-min Rain = 0
KQU1 151149Z 34008KT 04/M03 A302 RMK A01 T00391034  RH  059%=      5-min Rain = 0
KQU1 151150Z 33006KT 04/M03 A302 RMK A01 T00391034  RH  059%=      5-min Rain = 0
KQU1 151151Z 33006KT 04/M03 A302 RMK A01 T00391034  RH  059%=      5-min Rain = 0
KQU1 151152Z 33007KT 04/M03 A302 RMK A01 T00391034  RH  059%=      5-min Rain = 0
KQU1 151153Z 34006KT 04/M03 A302 RMK A01 T00391033  RH  059%=      5-min Rain = 0
KQU1 151154Z 34007KT 04/M04 A302 RMK A01 T00391035  RH  059%=      5-min Rain = 0
KQU1 151155Z 33007KT 04/M04 A302 RMK A01 T00391035  RH  058%=      5-min Rain = 0
KQU1 151156Z 33006KT 04/M03 A302 RMK A01 T00391034  RH  059%=      5-min Rain = 0
KQU1 151157Z 32009KT 04/M04 A302 RMK A01 T00391035  RH  058%=      5-min Rain = 0
KQU1 151158Z 33007KT 04/M03 A302 RMK A01 T00391034  RH  059%=      5-min Rain = 0
KQU1 151159Z 33006KT 04/M04 A302 RMK A01 T00391035  RH  059%=      5-min Rain = 0
KQU1 151200Z 32007KT 04/M03 A302 RMK A01 T00391034  RH  059%=      5-min Rain = 0
KQU1 151201Z 33007KT 04/M04 A302 RMK A01 T00391036  RH  058%=      5-min Rain = 0
KQU1 151202Z 33010KT 04/M04 A302 RMK A01 T00391036  RH  058%=      5-min Rain = 0
KQU1 151203Z 33008KT 04/M04 A302 RMK A01 T00401036  RH  058%=      5-min Rain = 0
KQU1 151204Z 32006KT 04/M04 A302 RMK A01 T00401035  RH  058%=      5-min Rain = 0
KQU1 151205Z 32006KT 04/M04 A302 RMK A01 T00391035  RH  058%=      5-min Rain = 0
KQU1 151206Z 32008KT 04/M04 A302 RMK A01 T00381035  RH  059%=      5-min Rain = 0
KQU1 151207Z 32008KT 04/M04 A302 RMK A01 T00381035  RH  059%=      5-min Rain = 0
KQU1 151208Z 33006KT 04/M03 A302 RMK A01 T00371034  RH  060%=      5-min Rain = 0
KQU1 151209Z 33008KT 04/M03 A302 RMK A01 T00371034  RH  060%=      5-min Rain = 0
KQU1 151210Z 33006KT 04/M03 A3021 RMK A01 T00371034  RH  060%=      5-min Rain = 0
KQU1 151211Z 32006KT 04/M03 A302 RMK A01 T00371034  RH  060%=      5-min Rain = 0
KQU1 151212Z 33006KT 04/M03 A3021 RMK A01 T00371034  RH  059%=      5-min Rain = 0
KQU1 151213Z 32006KT 04/M03 A3021 RMK A01 T00371034  RH  060%=      5-min Rain = 0
KQU1 151214Z 31006KT 04/M03 A3021 RMK A01 T00361034  RH  060%=      5-min Rain = 0
KQU1 151215Z 32007KT 03/M03 A3021 RMK A01 T00341034  RH  061%=      5-min Rain = 0
KQU1 151216Z 32007KT 03/M03 A3021 RMK A01 T00331034  RH  061%=      5-min Rain = 0
KQU1 151217Z 32007KT 03/M03 A3021 RMK A01 T00321034  RH  062%=      5-min Rain = 0
KQU1 151218Z 32006KT 03/M03 A3021 RMK A01 T00311034  RH  062%=      5-min Rain = 0
KQU1 151219Z 32005KT 03/M03 A3021 RMK A01 T00301034  RH  063%=      5-min Rain = 0
KQU1 151220Z 32007KT 03/M03 A3021 RMK A01 T00291034  RH  063%=      5-min Rain = 0
KQU1 151221Z 32007KT 03/M03 A3021 RMK A01 T00301034  RH  063%=      5-min Rain = 0
KQU1 151222Z 32007KT 03/M03 A3021 RMK A01 T00301033  RH  063%=      5-min Rain = 0
KQU1 151223Z 32005KT 03/M03 A3021 RMK A01 T00291033  RH  064%=      5-min Rain = 0
KQU1 151224Z 32005KT 03/M03 A3021 RMK A01 T00281034  RH  064%=      5-min Rain = 0
KQU1 151225Z 32004KT 03/M03 A3021 RMK A01 T00281034  RH  064%=      5-min Rain = 0
KQU1 151226Z 31007KT 03/M03 A3021 RMK A01 T00281034  RH  064%=      5-min Rain = 0
KQU1 151227Z 31007KT 03/M03 A3021 RMK A01 T00271033  RH  064%=      5-min Rain = 0
KQU1 151228Z 32007KT 03/M03 A3021 RMK A01 T00271033  RH  065%=      5-min Rain = 0
KQU1 151229Z 31007KT 03/M03 A3021 RMK A01 T00261033  RH  065%=      5-min Rain = 0
KQU1 151230Z 32006KT 03/M03 A3021 RMK A01 T00251033  RH  065%=      5-min Rain = 0
KQU1 151231Z 32006KT 03/M03 A3021 RMK A01 T00251033  RH  066%=      5-min Rain = 0
KQU1 151232Z 32006KT 03/M03 A3021 RMK A01 T00251033  RH  066%=      5-min Rain = 0
KQU1 151233Z 32006KT 03/M03 A3021 RMK A01 T00251033  RH  066%=      5-min Rain = 0
KQU1 151234Z 31006KT 03/M03 A3021 RMK A01 T00251033  RH  066%=      5-min Rain = 0
KQU1 151235Z 32006KT 03/M03 A3021 RMK A01 T00251033  RH  066%=      5-min Rain = 0
KQU1 151236Z 33006KT 03/M03 A3021 RMK A01 T00251033  RH  066%=      5-min Rain = 0
KQU1 151237Z 33005KT 02/M03 A3021 RMK A01 T00241033  RH  066%=      5-min Rain = 0
KQU1 151238Z 32006KT 02/M03 A3021 RMK A01 T00241033  RH  066%=      5-min Rain = 0
KQU1 151239Z 32006KT 02/M03 A3021 RMK A01 T00241033  RH  066%=      5-min Rain = 0
KQU1 151240Z 32006KT 03/M03 A3021 RMK A01 T00251033  RH  065%=      5-min Rain = 0
KQU1 151241Z 32006KT 03/M03 A3021 RMK A01 T00261033  RH  065%=      5-min Rain = 0
KQU1 151242Z 33006KT 03/M03 A3021 RMK A01 T00261033  RH  065%=      5-min Rain = 0
KQU1 151243Z 32006KT 03/M03 A3021 RMK A01 T00271033  RH  065%=      5-min Rain = 0
KQU1 151244Z 33007KT 03/M03 A3021 RMK A01 T00271033  RH  065%=      5-min Rain = 0
KQU1 151245Z 33006KT 03/M03 A3021 RMK A01 T00271033  RH  065%=      5-min Rain = 0
KQU1 151246Z 33006KT 03/M03 A3021 RMK A01 T00271034  RH  064%=      5-min Rain = 0
KQU1 151247Z 33006KT 03/M03 A3021 RMK A01 T00281034  RH  064%=      5-min Rain = 0
KQU1 151248Z 33006KT 03/M03 A3021 RMK A01 T00271034  RH  064%=      5-min Rain = 0
KQU1 151249Z 32007KT 03/M03 A3021 RMK A01 T00281034  RH  064%=      5-min Rain = 0
KQU1 151250Z 32007KT 03/M03 A3021 RMK A01 T00281034  RH  064%=      5-min Rain = 0
KQU1 151251Z 33006KT 03/M03 A3022 RMK A01 T00281034  RH  064%=      5-min Rain = 0
KQU1 151252Z 33005KT 03/M03 A3022 RMK A01 T00281034  RH  064%=      5-min Rain = 0
KQU1 151253Z 32005KT 03/M03 A3022 RMK A01 T00271034  RH  064%=      5-min Rain = 0
KQU1 151254Z 33007KT 03/M03 A3022 RMK A01 T00261034  RH  064%=      5-min Rain = 0
KQU1 151255Z 33006KT 03/M03 A3022 RMK A01 T00271034  RH  064%=      5-min Rain = 0
KQU1 151256Z 33005KT 03/M03 A3022 RMK A01 T00281034  RH  064%=      5-min Rain = 0
KQU1 151257Z 32006KT 03/M03 A3022 RMK A01 T00271034  RH  064%=      5-min Rain = 0
KQU1 151258Z 33006KT 03/M03 A3022 RMK A01 T00271034  RH  064%=      5-min Rain = 0
KQU1 151259Z 32006KT 03/M03 A3022 RMK A01 T00271034  RH  064%=      5-min Rain = 0
KQU1 151300Z 33006KT 03/M03 A3022 RMK A01 T00271034  RH  064%=      5-min Rain = 0
KQU1 151301Z 34006KT 03/M04 A3022 RMK A01 T00281035  RH  063%=      5-min Rain = 0
KQU1 151302Z 34005KT 03/M03 A3022 RMK A01 T00301034  RH  063%=      5-min Rain = 0
KQU1 151303Z 34005KT 03/M03 A3022 RMK A01 T00301034  RH  063%=      5-min Rain = 0
KQU1 151304Z 33006KT 03/M03 A3022 RMK A01 T00301034  RH  063%=      5-min Rain = 0
KQU1 151305Z 33005KT 03/M03 A3022 RMK A01 T00311034  RH  062%=      5-min Rain = 0
KQU1 151306Z 31005KT 03/M04 A3022 RMK A01 T00311035  RH  062%=      5-min Rain = 0
KQU1 151307Z 32005KT 03/M04 A3022 RMK A01 T00301035  RH  062%=      5-min Rain = 0
KQU1 151308Z 33005KT 03/M04 A3022 RMK A01 T00291035  RH  063%=      5-min Rain = 0
KQU1 151309Z 33005KT 03/M04 A3022 RMK A01 T00281035  RH  063%=      5-min Rain = 0
KQU1 151310Z 33005KT 03/M04 A3022 RMK A01 T00281035  RH  063%=      5-min Rain = 0
KQU1 151311Z 32005KT 03/M04 A3022 RMK A01 T00291035  RH  063%=      5-min Rain = 0
KQU1 151312Z 32007KT 03/M04 A3022 RMK A01 T00291035  RH  063%=      5-min Rain = 0
KQU1 151313Z 32006KT 03/M04 A3022 RMK A01 T00281035  RH  063%=      5-min Rain = 0
KQU1 151314Z 34004KT 03/M04 A3022 RMK A01 T00271035  RH  064%=      5-min Rain = 0
KQU1 151315Z 33005KT 03/M04 A3022 RMK A01 T00271035  RH  064%=      5-min Rain = 0
KQU1 151316Z 34005KT 03/M03 A3022 RMK A01 T00281034  RH  064%=      5-min Rain = 0
KQU1 151317Z 35005KT 03/M03 A3022 RMK A01 T00291034  RH  063%=      5-min Rain = 0
KQU1 151318Z 33005KT 03/M03 A3022 RMK A01 T00301033  RH  063%=      5-min Rain = 0
KQU1 151319Z 33007KT 03/M03 A3022 RMK A01 T00301034  RH  063%=      5-min Rain = 0
KQU1 151320Z 33009KT 03/M04 A3022 RMK A01 T00311035  RH  062%=      5-min Rain = 0
KQU1 151321Z 34007KT 03/M04 A3022 RMK A01 T00321036  RH  061%=      5-min Rain = 0
KQU1 151322Z 34007KT 03/M04 A3022 RMK A01 T00331035  RH  061%=      5-min Rain = 0
KQU1 151323Z 34006KT 03/M03 A3023 RMK A01 T00331034  RH  061%=      5-min Rain = 0
KQU1 151324Z 34008KT 03/M03 A3023 RMK A01 T00341034  RH  061%=      5-min Rain = 0
KQU1 151325Z 33007KT 03/M04 A3023 RMK A01 T00341035  RH  061%=      5-min Rain = 0
KQU1 151326Z 33007KT 04/M03 A3023 RMK A01 T00351033  RH  061%=      5-min Rain = 0
KQU1 151327Z 34007KT 04/M03 A3023 RMK A01 T00351034  RH  061%=      5-min Rain = 0
KQU1 151328Z 34007KT 03/M04 A3023 RMK A01 T00341035  RH  060%=      5-min Rain = 0
KQU1 151329Z 34006KT 03/M04 A3023 RMK A01 T00341035  RH  060%=      5-min Rain = 0
KQU1 151330Z 34006KT 03/M03 A3023 RMK A01 T00341034  RH  061%=      5-min Rain = 0
KQU1 151331Z 34007KT 03/M04 A3023 RMK A01 T00341035  RH  061%=      5-min Rain = 0
KQU1 151332Z 34008KT 03/M04 A3023 RMK A01 T00341035  RH  060%=      5-min Rain = 0
KQU1 151333Z 33009KT 03/M04 A3023 RMK A01 T00341036  RH  060%=      5-min Rain = 0
KQU1 151334Z 34010G15KT 04/M04 A3023 RMK A01 T00351036  RH  060%=      5-min Rain = 0
KQU1 151335Z 33008KT 04/M04 A3023 RMK A01 T00351035  RH  060%=      5-min Rain = 0
KQU1 151336Z 34007KT 04/M04 A3023 RMK A01 T00351035  RH  060%=      5-min Rain = 0
KQU1 151337Z 34007KT 04/M03 A3023 RMK A01 T00351034  RH  061%=      5-min Rain = 0
KQU1 151338Z 34010KT 04/M03 A3023 RMK A01 T00351034  RH  061%=      5-min Rain = 0
KQU1 151339Z 33011KT 04/M04 A3023 RMK A01 T00351036  RH  060%=      5-min Rain = 0
KQU1 151340Z 34009KT 04/M04 A3023 RMK A01 T00361036  RH  059%=      5-min Rain = 0
KQU1 151341Z 33007KT 04/M03 A3023 RMK A01 T00361034  RH  060%=      5-min Rain = 0
KQU1 151342Z 34006KT 04/M03 A3023 RMK A01 T00361033  RH  061%=      5-min Rain = 0
KQU1 151343Z 34007KT 04/M03 A3023 RMK A01 T00351034  RH  060%=      5-min Rain = 0
KQU1 151344Z 35006KT 04/M03 A3024 RMK A01 T00351032  RH  061%=      5-min Rain = 0
KQU1 151345Z 33007KT 04/M03 A3024 RMK A01 T00351032  RH  062%=      5-min Rain = 0
KQU1 151346Z 34006KT 04/M03 A3024 RMK A01 T00351033  RH  061%=      5-min Rain = 0
KQU1 151347Z 34009KT 04/M03 A3024 RMK A01 T00361034  RH  060%=      5-min Rain = 0
KQU1 151348Z 34008KT 04/M03 A3024 RMK A01 T00361034  RH  060%=      5-min Rain = 0
KQU1 151349Z 34008KT 04/M03 A3024 RMK A01 T00361034  RH  060%=      5-min Rain = 0
KQU1 151350Z 35010KT 04/M03 A3024 RMK A01 T00361034  RH  060%=      5-min Rain = 0
KQU1 151351Z 33008KT 04/M03 A3024 RMK A01 T00361033  RH  060%=      5-min Rain = 0
KQU1 151352Z 33007KT 04/M03 A3024 RMK A01 T00361034  RH  060%=      5-min Rain = 0
KQU1 151353Z 35005KT 04/M03 A3024 RMK A01 T00361032  RH  061%=      5-min Rain = 0
KQU1 151354Z 34008KT 04/M03 A3024 RMK A01 T00361034  RH  060%=      5-min Rain = 0
KQU1 151355Z 34007KT 04/M04 A3024 RMK A01 T00371035  RH  060%=      5-min Rain = 0
KQU1 151356Z 34008KT 04/M03 A3024 RMK A01 T00361034  RH  060%=      5-min Rain = 0
KQU1 151357Z 33010KT 04/M04 A3024 RMK A01 T00361035  RH  060%=      5-min Rain = 0
KQU1 151358Z 33007KT 04/M04 A3024 RMK A01 T00361036  RH  059%=      5-min Rain = 0
KQU1 151359Z 34008KT 04/M04 A3024 RMK A01 T00361035  RH  060%=      5-min Rain = 0
KQU1 151400Z 34009KT 04/M03 A3024 RMK A01 T00361034  RH  061%=      5-min Rain = 0
KQU1 151401Z 34008KT 04/M03 A3024 RMK A01 T00351034  RH  060%=      5-min Rain = 0
KQU1 151402Z 34011KT 04/M04 A3024 RMK A01 T00351036  RH  060%=      5-min Rain = 0
KQU1 151403Z 34008KT 04/M04 A3024 RMK A01 T00351035  RH  060%=      5-min Rain = 0
KQU1 151404Z 34007KT 04/M03 A3024 RMK A01 T00351034  RH  060%=      5-min Rain = 0
KQU1 151405Z 34007KT 04/M03 A3024 RMK A01 T00351033  RH  061%=      5-min Rain = 0
KQU1 151406Z 33008KT 04/M04 A3024 RMK A01 T00351035  RH  060%=      5-min Rain = 0
KQU1 151407Z 34009KT 04/M03 A3024 RMK A01 T00351034  RH  061%=      5-min Rain = 0
KQU1 151408Z 34008KT 04/M04 A3024 RMK A01 T00351035  RH  060%=      5-min Rain = 0
KQU1 151409Z 34008KT 04/M04 A3024 RMK A01 T00351035  RH  060%=      5-min Rain = 0
KQU1 151410Z 34008G13KT 04/M03 A3024 RMK A01 T00361034  RH  060%=      5-min Rain = 0
KQU1 151411Z 33009KT 04/M03 A3024 RMK A01 T00361034  RH  060%=      5-min Rain = 0
KQU1 151412Z 33010KT 04/M04 A3024 RMK A01 T00361035  RH  059%=      5-min Rain = 0
KQU1 151413Z 34009KT 04/M03 A3024 RMK A01 T00371034  RH  060%=      5-min Rain = 0
KQU1 151414Z 34010KT 04/M04 A3024 RMK A01 T00371035  RH  059%=      5-min Rain = 0
KQU1 151415Z 34010KT 04/M04 A3024 RMK A01 T00371036  RH  059%=      5-min Rain = 0
KQU1 151416Z 35009KT 04/M03 A3024 RMK A01 T00381034  RH  059%=      5-min Rain = 0
KQU1 151417Z 34007KT 04/M03 A3025 RMK A01 T00381033  RH  060%=      5-min Rain = 0
KQU1 151418Z 34009KT 04/M04 A3025 RMK A01 T00391035  RH  059%=      5-min Rain = 0
KQU1 151419Z 35010KT 04/M04 A3025 RMK A01 T00391035  RH  059%=      5-min Rain = 0
KQU1 151420Z 33009KT 04/M04 A3025 RMK A01 T00391036  RH  058%=      5-min Rain = 0
KQU1 151421Z 34008KT 04/M04 A3025 RMK A01 T00391035  RH  058%=      5-min Rain = 0
KQU1 151422Z 34008KT 04/M03 A3025 RMK A01 T00391034  RH  059%=      5-min Rain = 0
KQU1 151423Z 34008KT 04/M04 A3025 RMK A01 T00391035  RH  058%=      5-min Rain = 0
KQU1 151424Z 33009KT 04/M03 A3025 RMK A01 T00401034  RH  059%=      5-min Rain = 0
KQU1 151425Z 33008KT 04/M03 A3025 RMK A01 T00401033  RH  059%=      5-min Rain = 0
KQU1 151426Z 34007KT 04/M03 A3025 RMK A01 T00401034  RH  058%=      5-min Rain = 0
KQU1 151427Z 34008KT 04/M03 A3025 RMK A01 T00411033  RH  059%=      5-min Rain = 0
KQU1 151428Z 33010KT 04/M03 A3025 RMK A01 T00411034  RH  058%=      5-min Rain = 0
KQU1 151429Z 34011KT 04/M04 A3025 RMK A01 T00411036  RH  057%=      5-min Rain = 0
KQU1 151430Z 35009KT 04/M04 A3025 RMK A01 T00411035  RH  058%=      5-min Rain = 0
KQU1 151431Z 33009KT 04/M04 A3025 RMK A01 T00421035  RH  058%=      5-min Rain = 0
KQU1 151432Z 35009KT 04/M04 A3025 RMK A01 T00421035  RH  057%=      5-min Rain = 0
KQU1 151433Z 35011KT 04/M03 A3025 RMK A01 T00421034  RH  058%=      5-min Rain = 0
KQU1 151434Z 34012KT 04/M04 A3025 RMK A01 T00421035  RH  057%=      5-min Rain = 0
KQU1 151435Z 33010KT 04/M04 A3025 RMK A01 T00421036  RH  057%=      5-min Rain = 0
KQU1 151436Z 34009KT 04/M03 A3025 RMK A01 T00421034  RH  057%=      5-min Rain = 0
KQU1 151437Z 34008KT 04/M04 A3025 RMK A01 T00431035  RH  057%=      5-min Rain = 0
KQU1 151438Z 34008KT 04/M03 A3025 RMK A01 T00431033  RH  057%=      5-min Rain = 0
KQU1 151439Z 34009KT 04/M03 A3025 RMK A01 T00441034  RH  057%=      5-min Rain = 0
KQU1 151440Z 36010KT 04/M04 A3025 RMK A01 T00441035  RH  057%=      5-min Rain = 0
KQU1 151441Z 34009KT 04/M03 A3025 RMK A01 T00441034  RH  057%=      5-min Rain = 0
KQU1 151442Z 35007KT 04/M03 A3025 RMK A01 T00441032  RH  058%=      5-min Rain = 0
KQU1 151443Z 34010KT 05/M03 A3025 RMK A01 T00451034  RH  057%=      5-min Rain = 0
KQU1 151444Z 35009KT 05/M03 A3026 RMK A01 T00451034  RH  057%=      5-min Rain = 0
KQU1 151445Z 33009KT 05/M04 A3026 RMK A01 T00451035  RH  056%=      5-min Rain = 0
KQU1 151446Z 34010KT 05/M04 A3026 RMK A01 T00451035  RH  056%=      5-min Rain = 0
KQU1 151447Z 35008KT 05/M03 A3026 RMK A01 T00451033  RH  057%=      5-min Rain = 0
KQU1 151448Z 33009KT 05/M03 A3026 RMK A01 T00451033  RH  057%=      5-min Rain = 0
KQU1 151449Z 34009KT 05/M03 A3026 RMK A01 T00451034  RH  056%=      5-min Rain = 0
KQU1 151450Z 35009KT 05/M03 A3026 RMK A01 T00461034  RH  056%=      5-min Rain = 0
KQU1 151451Z 34008KT 05/M03 A3026 RMK A01 T00461032  RH  057%=      5-min Rain = 0
KQU1 151452Z 35008KT 05/M03 A3026 RMK A01 T00461033  RH  056%=      5-min Rain = 0
KQU1 151453Z 34010KT 05/M03 A3026 RMK A01 T00461033  RH  056%=      5-min Rain = 0
KQU1 151454Z 34009KT 05/M03 A3026 RMK A01 T00461033  RH  056%=      5-min Rain = 0
KQU1 151455Z 35010KT 05/M03 A3026 RMK A01 T00461034  RH  056%=      5-min Rain = 0
KQU1 151456Z 35010KT 05/M03 A3026 RMK A01 T00461034  RH  056%=      5-min Rain = 0
KQU1 151457Z 35009KT 05/M03 A3026 RMK A01 T00461034  RH  056%=      5-min Rain = 0
KQU1 151458Z 36010KT 05/M03 A3026 RMK A01 T00461034  RH  056%=      5-min Rain = 0
KQU1 151459Z 35007KT 05/M03 A3026 RMK A01 T00461030  RH  058%=      5-min Rain = 0
KQU1 151500Z 34009KT 05/M03 A3026 RMK A01 T00471034  RH  056%=      5-min Rain = 0
KQU1 151501Z 34009KT 05/M03 A3026 RMK A01 T00471034  RH  056%=      5-min Rain = 0
KQU1 151502Z 35008KT 05/M03 A3026 RMK A01 T00471032  RH  057%=      5-min Rain = 0
KQU1 151503Z 35007KT 05/M03 A3026 RMK A01 T00481032  RH  056%=      5-min Rain = 0
KQU1 151504Z 35010KT 05/M03 A3026 RMK A01 T00481032  RH  056%=      5-min Rain = 0
KQU1 151505Z 36010KT 05/M03 A3026 RMK A01 T00481032  RH  056%=      5-min Rain = 0
KQU1 151506Z 35008KT 05/M03 A3026 RMK A01 T00481032  RH  056%=      5-min Rain = 0
KQU1 151507Z 36006KT 05/M03 A3026 RMK A01 T00481032  RH  056%=      5-min Rain = 0
KQU1 151508Z 34008KT 05/M03 A3026 RMK A01 T00481030  RH  057%=      5-min Rain = 0
KQU1 151509Z 35010KT 05/M03 A3026 RMK A01 T00491033  RH  055%=      5-min Rain = 0
KQU1 151510Z 35006KT 05/M03 A3027 RMK A01 T00491032  RH  056%=      5-min Rain = 0
KQU1 151511Z 35006KT 05/M03 A3027 RMK A01 T00491029  RH  057%=      5-min Rain = 0
KQU1 151512Z 35007KT 05/M03 A3027 RMK A01 T00501032  RH  055%=      5-min Rain = 0
KQU1 151513Z 35007KT 05/M03 A3027 RMK A01 T00501031  RH  056%=      5-min Rain = 0
KQU1 151514Z 35007KT 05/M03 A3027 RMK A01 T00501033  RH  055%=      5-min Rain = 0
KQU1 151515Z 36007KT 05/M03 A3027 RMK A01 T00511031  RH  056%=      5-min Rain = 0
KQU1 151516Z 33007KT 05/M03 A3027 RMK A01 T00511030  RH  056%=      5-min Rain = 0
KQU1 151517Z 34008KT 05/M04 A3027 RMK A01 T00511036  RH  053%=      5-min Rain = 0
KQU1 151518Z 33005KT 05/M03 A3027 RMK A01 T00511034  RH  054%=      5-min Rain = 0
KQU1 151519Z 34007KT 05/M03 A3027 RMK A01 T00511031  RH  055%=      5-min Rain = 0
KQU1 151520Z 35006KT 05/M03 A3027 RMK A01 T00521032  RH  055%=      5-min Rain = 0
KQU1 151521Z 35005KT 05/M03 A3027 RMK A01 T00531030  RH  055%=      5-min Rain = 0
KQU1 151522Z 35007KT 05/M03 A3027 RMK A01 T00541028  RH  056%=      5-min Rain = 0
KQU1 151523Z 35005KT 05/M03 A3027 RMK A01 T00541031  RH  054%=      5-min Rain = 0
KQU1 151524Z 34006KT 05/M03 A3027 RMK A01 T00541033  RH  054%=      5-min Rain = 0
KQU1 151525Z 00008KT 05/M03 A3027 RMK A01 T00541030  RH  055%=      5-min Rain = 0
KQU1 151526Z 35008KT 05/M03 A3027 RMK A01 T00541031  RH  054%=      5-min Rain = 0
KQU1 151527Z 36008KT 05/M03 A3027 RMK A01 T00541029  RH  055%=      5-min Rain = 0
KQU1 151528Z 35007KT 06/M03 A3027 RMK A01 T00551030  RH  054%=      5-min Rain = 0
KQU1 151529Z 36006KT 06/M03 A3027 RMK A01 T00551032  RH  054%=      5-min Rain = 0
KQU1 151530Z 36006KT 06/M03 A3027 RMK A01 T00561026  RH  056%=      5-min Rain = 0
KQU1 151531Z 35006KT 06/M03 A3027 RMK A01 T00561030  RH  054%=      5-min Rain = 0
KQU1 151532Z 34006KT 06/M03 A3027 RMK A01 T00561030  RH  054%=      5-min Rain = 0
KQU1 151533Z 33008KT 06/M03 A3027 RMK A01 T00561031  RH  053%=      5-min Rain = 0
KQU1 151534Z 33006KT 06/M03 A3027 RMK A01 T00561031  RH  053%=      5-min Rain = 0
KQU1 151535Z 36006KT 06/M03 A3027 RMK A01 T00581027  RH  054%=      5-min Rain = 0
KQU1 151536Z 35006KT 06/M03 A3027 RMK A01 T00581028  RH  054%=      5-min Rain = 0
KQU1 151537Z 35005KT 06/M03 A3027 RMK A01 T00591028  RH  053%=      5-min Rain = 0
KQU1 151538Z 36005KT 06/M03 A3027 RMK A01 T00591030  RH  053%=      5-min Rain = 0
KQU1 151539Z 34009KT 06/M03 A3027 RMK A01 T00591030  RH  053%=      5-min Rain = 0
KQU1 151540Z 34006KT 06/M03 A3027 RMK A01 T00581033  RH  052%=      5-min Rain = 0
KQU1 151541Z 34008KT 06/M03 A3027 RMK A01 T00581032  RH  052%=      5-min Rain = 0
KQU1 151542Z 36005KT 06/M03 A3027 RMK A01 T00581028  RH  054%=      5-min Rain = 0
KQU1 151543Z 35005KT 06/M03 A3027 RMK A01 T00591027  RH  054%=      5-min Rain = 0
KQU1 151544Z 34009KT 06/M03 A3027 RMK A01 T00591029  RH  053%=      5-min Rain = 0
KQU1 151545Z 35006KT 06/M03 A3027 RMK A01 T00591030  RH  053%=      5-min Rain = 0
KQU1 151546Z 35007KT 06/M03 A3027 RMK A01 T00591030  RH  053%=      5-min Rain = 0
KQU1 151547Z 35007KT 06/M03 A3027 RMK A01 T00591026  RH  054%=      5-min Rain = 0
KQU1 151548Z 35008KT 06/M03 A3027 RMK A01 T00591029  RH  053%=      5-min Rain = 0
KQU1 151549Z 34007KT 06/M03 A3027 RMK A01 T00591032  RH  052%=      5-min Rain = 0
KQU1 151550Z 01004KT 06/M03 A3027 RMK A01 T00591028  RH  053%=      5-min Rain = 0
KQU1 151551Z 36006KT 06/M03 A3027 RMK A01 T00601027  RH  054%=      5-min Rain = 0
KQU1 151552Z 35006KT 06/M02 A3027 RMK A01 T00611023  RH  055%=      5-min Rain = 0
KQU1 151553Z 34007KT 06/M03 A3027 RMK A01 T00611031  RH  052%=      5-min Rain = 0
KQU1 151554Z 35005KT 06/M03 A3027 RMK A01 T00601031  RH  052%=      5-min Rain = 0
KQU1 151555Z 02005KT 06/M03 A3027 RMK A01 T00611025  RH  054%=      5-min Rain = 0
KQU1 151556Z 01005KT 06/M03 A3027 RMK A01 T00621026  RH  053%=      5-min Rain = 0
KQU1 151557Z 02007KT 06/M03 A3027 RMK A01 T00621027  RH  053%=      5-min Rain = 0
KQU1 151558Z 36006KT 06/M03 A3027 RMK A01 T00621027  RH  053%=      5-min Rain = 0
KQU1 151559Z 35006KT 06/M03 A3027 RMK A01 T00621028  RH  053%=      5-min Rain = 0
KQU1 151600Z 34006KT 06/M03 A3027 RMK A01 T00621025  RH  054%=      5-min Rain = 0
KQU1 151601Z 35008KT 06/M03 A3027 RMK A01 T00621029  RH  052%=      5-min Rain = 0
KQU1 151602Z 36006KT 06/M03 A3027 RMK A01 T00611026  RH  053%=      5-min Rain = 0
KQU1 151603Z 34005KT 06/M02 A3027 RMK A01 T00621024  RH  054%=      5-min Rain = 0
KQU1 151604Z 35005KT 06/M02 A3027 RMK A01 T00631022  RH  054%=      5-min Rain = 0
KQU1 151605Z 34007KT 06/M02 A3027 RMK A01 T00641024  RH  053%=      5-min Rain = 0
KQU1 151606Z 34007KT 06/M03 A3027 RMK A01 T00641026  RH  053%=      5-min Rain = 0
KQU1 151607Z 35007KT 06/M03 A3027 RMK A01 T00641025  RH  053%=      5-min Rain = 0
KQU1 151608Z 35006KT 06/M03 A3027 RMK A01 T00641028  RH  052%=      5-min Rain = 0
KQU1 151609Z 00006KT 06/M03 A3027 RMK A01 T00631028  RH  052%=      5-min Rain = 0
KQU1 151610Z 02003KT 06/M03 A3027 RMK A01 T00631028  RH  052%=      5-min Rain = 0
KQU1 151611Z 01005KT 07/M03 A3027 RMK A01 T00651025  RH  053%=      5-min Rain = 0
KQU1 151612Z 36003KT 07/M02 A3027 RMK A01 T00661021  RH  054%=      5-min Rain = 0
KQU1 151613Z 02005KT 07/M02 A3027 RMK A01 T00671024  RH  052%=      5-min Rain = 0
KQU1 151614Z 00004KT 07/M02 A3027 RMK A01 T00681024  RH  052%=      5-min Rain = 0
KQU1 151615Z 02006KT 07/M03 A3027 RMK A01 T00681025  RH  052%=      5-min Rain = 0
KQU1 151616Z 36003KT 07/M02 A3027 RMK A01 T00671023  RH  052%=      5-min Rain = 0
KQU1 151617Z 01005KT 07/M03 A3027 RMK A01 T00671026  RH  051%=      5-min Rain = 0
KQU1 151618Z 03005KT 07/M03 A3027 RMK A01 T00671025  RH  052%=      5-min Rain = 0
KQU1 151619Z 02006KT 07/M02 A3027 RMK A01 T00671023  RH  053%=      5-min Rain = 0
KQU1 151620Z 02006KT 07/M02 A3027 RMK A01 T00671024  RH  052%=      5-min Rain = 0
KQU1 151621Z 02006KT 07/M02 A3027 RMK A01 T00671024  RH  052%=      5-min Rain = 0
KQU1 151622Z 02004KT 07/M02 A3027 RMK A01 T00671023  RH  052%=      5-min Rain = 0
KQU1 151623Z 02004KT 07/M02 A3027 RMK A01 T00681023  RH  052%=      5-min Rain = 0
KQU1 151624Z 01004KT 07/M02 A3027 RMK A01 T00691024  RH  052%=      5-min Rain = 0
KQU1 151625Z 02004KT 07/M03 A3027 RMK A01 T00691026  RH  051%=      5-min Rain = 0
KQU1 151626Z 02003KT 07/M02 A3027 RMK A01 T00701022  RH  052%=      5-min Rain = 0
KQU1 151627Z 01005KT 07/M02 A3027 RMK A01 T00711023  RH  051%=      5-min Rain = 0
KQU1 151628Z 01006KT 07/M03 A3027 RMK A01 T00701025  RH  051%=      5-min Rain = 0
KQU1 151629Z 02005KT 07/M03 A3027 RMK A01 T00701026  RH  050%=      5-min Rain = 0
KQU1 151630Z 01005KT 07/M02 A3027 RMK A01 T00711024  RH  051%=      5-min Rain = 0
KQU1 151631Z 01004KT 07/M03 A3027 RMK A01 T00701026  RH  050%=      5-min Rain = 0
KQU1 151632Z 35005KT 07/M03 A3027 RMK A01 T00701025  RH  051%=      5-min Rain = 0
KQU1 151633Z 34007KT 07/M03 A3027 RMK A01 T00701027  RH  050%=      5-min Rain = 0
KQU1 151634Z 35006KT 07/M03 A3027 RMK A01 T00691026  RH  051%=      5-min Rain = 0
KQU1 151635Z 35005KT 07/M02 A3027 RMK A01 T00691022  RH  052%=      5-min Rain = 0
KQU1 151636Z 35005KT 07/M03 A3027 RMK A01 T00701025  RH  051%=      5-min Rain = 0
KQU1 151637Z 34004KT 07/M03 A3027 RMK A01 T00691028  RH  050%=      5-min Rain = 0
KQU1 151638Z 35005KT 07/M02 A3027 RMK A01 T00701024  RH  051%=      5-min Rain = 0
KQU1 151639Z 35004KT 07/M02 A3027 RMK A01 T00701024  RH  051%=      5-min Rain = 0
KQU1 151640Z 36004KT 07/M02 A3027 RMK A01 T00711023  RH  051%=      5-min Rain = 0
KQU1 151641Z 00003KT 07/M02 A3027 RMK A01 T00721020  RH  052%=      5-min Rain = 0
KQU1 151642Z 34005KT 07/M02 A3027 RMK A01 T00731024  RH  050%=      5-min Rain = 0
KQU1 151643Z 35003KT 07/M02 A3027 RMK A01 T00731023  RH  051%=      5-min Rain = 0
KQU1 151644Z 34005KT 07/M02 A3027 RMK A01 T00731023  RH  051%=      5-min Rain = 0
KQU1 151645Z 32005KT 07/M03 A3027 RMK A01 T00721029  RH  048%=      5-min Rain = 0
KQU1 151646Z 32002KT 07/M03 A3027 RMK A01 T00711028  RH  049%=      5-min Rain = 0
KQU1 151647Z 33004KT 07/M02 A3027 RMK A01 T00731020  RH  052%=      5-min Rain = 0
KQU1 151648Z 35006KT 07/M02 A3027 RMK A01 T00741021  RH  051%=      5-min Rain = 0
KQU1 151649Z 34007KT 07/M03 A3027 RMK A01 T00741025  RH  049%=      5-min Rain = 0
KQU1 151650Z 34006KT 07/M03 A3027 RMK A01 T00731028  RH  049%=      5-min Rain = 0
KQU1 151651Z 34004KT 07/M03 A3027 RMK A01 T00731026  RH  049%=      5-min Rain = 0
KQU1 151652Z 36006KT 07/M02 A3027 RMK A01 T00741023  RH  050%=      5-min Rain = 0
KQU1 151653Z 01005KT 08/M02 A3027 RMK A01 T00751021  RH  050%=      5-min Rain = 0
KQU1 151654Z 01005KT 08/M03 A3027 RMK A01 T00751026  RH  049%=      5-min Rain = 0
KQU1 151655Z 01005KT 08/M03 A3027 RMK A01 T00751027  RH  048%=      5-min Rain = 0
KQU1 151656Z 00005KT 08/M03 A3027 RMK A01 T00751027  RH  048%=      5-min Rain = 0
KQU1 151657Z 00007KT 08/M03 A3027 RMK A01 T00751030  RH  047%=      5-min Rain = 0
KQU1 151658Z 01003KT 08/M03 A3027 RMK A01 T00751026  RH  049%=      5-min Rain = 0
KQU1 151659Z 35004KT 08/M02 A3027 RMK A01 T00761024  RH  049%=      5-min Rain = 0
KQU1 151700Z 36004KT 08/M02 A3027 RMK A01 T00761024  RH  049%=      5-min Rain = 0
KQU1 151701Z 35004KT 08/M02 A3027 RMK A01 T00771024  RH  049%=      5-min Rain = 0
KQU1 151702Z 33004KT 08/M03 A3027 RMK A01 T00761027  RH  048%=      5-min Rain = 0
KQU1 151703Z 35005KT 08/M03 A3027 RMK A01 T00751026  RH  049%=      5-min Rain = 0
KQU1 151704Z 32004KT 08/M03 A3027 RMK A01 T00751028  RH  048%=      5-min Rain = 0
KQU1 151705Z 01005KT 08/M03 A3027 RMK A01 T00761026  RH  048%=      5-min Rain = 0
KQU1 151706Z 02004KT 08/M02 A3027 RMK A01 T00771021  RH  050%=      5-min Rain = 0
KQU1 151707Z 03006KT 08/M03 A3027 RMK A01 T00781026  RH  048%=      5-min Rain = 0
KQU1 151708Z 01006KT 08/M02 A3027 RMK A01 T00781022  RH  049%=      5-min Rain = 0
KQU1 151709Z 01004KT 08/M02 A3027 RMK A01 T00791023  RH  049%=      5-min Rain = 0
KQU1 151710Z 02005KT 08/M03 A3027 RMK A01 T00791026  RH  048%=      5-min Rain = 0
KQU1 151711Z 02003KT 08/M02 A3027 RMK A01 T00791023  RH  049%=      5-min Rain = 0
KQU1 151712Z 36005KT 08/M03 A3027 RMK A01 T00801027  RH  047%=      5-min Rain = 0
KQU1 151713Z 34005KT 08/M03 A3027 RMK A01 T00791025  RH  048%=      5-min Rain = 0
KQU1 151714Z 35007KT 08/M03 A3027 RMK A01 T00781029  RH  047%=      5-min Rain = 0
KQU1 151715Z 35005KT 08/M03 A3027 RMK A01 T00781027  RH  048%=      5-min Rain = 0
KQU1 151716Z 34006KT 08/M03 A3027 RMK A01 T00771026  RH  048%=      5-min Rain = 0
KQU1 151717Z 34004KT 08/M03 A3027 RMK A01 T00771029  RH  047%=      5-min Rain = 0
KQU1 151718Z 36004KT 08/M03 A3027 RMK A01 T00771026  RH  048%=      5-min Rain = 0
KQU1 151719Z 35003KT 08/M03 A3027 RMK A01 T00771026  RH  048%=      5-min Rain = 0
KQU1 151720Z 34005KT 08/M03 A3027 RMK A01 T00771025  RH  048%=      5-min Rain = 0
KQU1 151721Z 34005KT 08/M03 A3027 RMK A01 T00781026  RH  048%=      5-min Rain = 0
KQU1 151722Z 34005KT 08/M03 A3027 RMK A01 T00791027  RH  047%=      5-min Rain = 0
KQU1 151723Z 34005KT 08/M02 A3027 RMK A01 T00791022  RH  049%=      5-min Rain = 0
KQU1 151724Z 36005KT 08/M02 A3027 RMK A01 T00801023  RH  048%=      5-min Rain = 0
KQU1 151725Z 36006KT 08/M02 A3027 RMK A01 T00811024  RH  048%=      5-min Rain = 0
KQU1 151726Z 34008KT 08/M03 A3027 RMK A01 T00811029  RH  046%=      5-min Rain = 0
KQU1 151727Z 35007KT 08/M03 A3027 RMK A01 T00811028  RH  046%=      5-min Rain = 0
KQU1 151728Z 36005KT 08/M03 A3027 RMK A01 T00811032  RH  045%=      5-min Rain = 0
KQU1 151729Z 33003KT 08/M03 A3027 RMK A01 T00811030  RH  045%=      5-min Rain = 0
KQU1 151730Z 34005KT 08/M03 A3027 RMK A01 T00811030  RH  045%=      5-min Rain = 0
KQU1 151731Z 32003KT 08/M03 A3027 RMK A01 T00811029  RH  046%=      5-min Rain = 0
KQU1 151732Z 35004KT 08/M03 A3027 RMK A01 T00821028  RH  046%=      5-min Rain = 0
KQU1 151733Z 35006KT 08/M03 A3027 RMK A01 T00831026  RH  046%=      5-min Rain = 0
KQU1 151734Z 34006KT 08/M03 A3027 RMK A01 T00831029  RH  045%=      5-min Rain = 0
KQU1 151735Z 34006KT 08/M03 A3027 RMK A01 T00831026  RH  046%=      5-min Rain = 0
KQU1 151736Z 34006KT 09/M03 A3027 RMK A01 T00851027  RH  045%=      5-min Rain = 0
KQU1 151737Z 33003KT 08/M04 A3027 RMK A01 T00841035  RH  043%=      5-min Rain = 0
KQU1 151738Z 32001KT 09/M04 A3027 RMK A01 T00851036  RH  042%=      5-min Rain = 0
KQU1 151739Z 32003KT 09/M03 A3027 RMK A01 T00861031  RH  044%=      5-min Rain = 0
KQU1 151740Z 34006KT 09/M02 A3027 RMK A01 T00871022  RH  046%=      5-min Rain = 0
KQU1 151741Z 36005KT 09/M02 A3027 RMK A01 T00881024  RH  045%=      5-min Rain = 0
KQU1 151742Z 35004KT 09/M02 A3027 RMK A01 T00871024  RH  046%=      5-min Rain = 0
KQU1 151743Z 33005KT 09/M03 A3026 RMK A01 T00871027  RH  044%=      5-min Rain = 0
KQU1 151744Z 33005KT 09/M03 A3026 RMK A01 T00861030  RH  044%=      5-min Rain = 0
KQU1 151745Z 01004KT 09/M02 A3026 RMK A01 T00871024  RH  046%=      5-min Rain = 0
KQU1 151746Z 03005KT 09/M03 A3026 RMK A01 T00881026  RH  045%=      5-min Rain = 0
KQU1 151747Z 01004KT 09/M03 A3026 RMK A01 T00891034  RH  042%=      5-min Rain = 0
KQU1 151748Z 36005KT 09/M03 A3026 RMK A01 T00891030  RH  043%=      5-min Rain = 0
KQU1 151749Z 33007KT 09/M03 A3026 RMK A01 T00891028  RH  044%=      5-min Rain = 0
KQU1 151750Z 33008KT 09/M03 A3026 RMK A01 T00901026  RH  044%=      5-min Rain = 0
KQU1 151751Z 31008KT 09/M03 A3026 RMK A01 T00901027  RH  044%=      5-min Rain = 0
KQU1 151752Z 31007KT 09/M02 A3026 RMK A01 T00901024  RH  045%=      5-min Rain = 0
KQU1 151753Z 32007KT 09/M02 A3026 RMK A01 T00911022  RH  045%=      5-min Rain = 0
KQU1 151754Z 31006KT 09/M03 A3026 RMK A01 T00911027  RH  043%=      5-min Rain = 0
KQU1 151755Z 33005KT 09/M03 A3026 RMK A01 T00911028  RH  043%=      5-min Rain = 0
KQU1 151756Z 35007KT 09/M03 A3026 RMK A01 T00911029  RH  043%=      5-min Rain = 0
KQU1 151757Z 01003KT 09/M03 A3026 RMK A01 T00901032  RH  042%=      5-min Rain = 0
KQU1 151758Z 36006KT 09/M03 A3026 RMK A01 T00901027  RH  043%=      5-min Rain = 0
KQU1 151759Z 34007KT 09/M03 A3026 RMK A01 T00901028  RH  043%=      5-min Rain = 0
KQU1 151800Z 36009KT 09/M03 A3026 RMK A01 T00901030  RH  043%=      5-min Rain = 0
KQU1 151801Z 00008KT 09/M03 A3026 RMK A01 T00901028  RH  044%=      5-min Rain = 0
KQU1 151802Z 36008KT 09/M03 A3026 RMK A01 T00901030  RH  043%=      5-min Rain = 0
KQU1 151803Z 01006KT 09/M03 A3026 RMK A01 T00901031  RH  042%=      5-min Rain = 0
KQU1 151804Z 00004KT 09/M03 A3026 RMK A01 T00901025  RH  044%=      5-min Rain = 0
KQU1 151805Z 00004KT 09/M03 A3026 RMK A01 T00911028  RH  043%=      5-min Rain = 0
KQU1 151806Z 36005KT 09/M03 A3026 RMK A01 T00911030  RH  042%=      5-min Rain = 0
KQU1 151807Z 34005KT 09/M03 A3026 RMK A01 T00911032  RH  042%=      5-min Rain = 0
KQU1 151808Z 01006KT 09/M03 A3026 RMK A01 T00911026  RH  044%=      5-min Rain = 0
KQU1 151809Z 01006KT 09/M03 A3026 RMK A01 T00921029  RH  042%=      5-min Rain = 0
KQU1 151810Z 02008KT 09/M03 A3026 RMK A01 T00931029  RH  042%=      5-min Rain = 0
KQU1 151811Z 02007KT 09/M03 A3026 RMK A01 T00931030  RH  042%=      5-min Rain = 0
KQU1 151812Z 03007KT 09/M03 A3025 RMK A01 T00941032  RH  041%=      5-min Rain = 0
KQU1 151813Z 00008KT 09/M03 A3025 RMK A01 T00941027  RH  043%=      5-min Rain = 0
KQU1 151814Z 35007KT 09/M02 A3025 RMK A01 T00941023  RH  044%=      5-min Rain = 0
KQU1 151815Z 00005KT 10/M03 A3025 RMK A01 T00951027  RH  042%=      5-min Rain = 0
KQU1 151816Z 00005KT 10/M03 A3025 RMK A01 T00951028  RH  042%=      5-min Rain = 0
KQU1 151817Z 34005KT 10/M03 A3025 RMK A01 T00951029  RH  042%=      5-min Rain = 0
KQU1 151818Z 36008KT 10/M03 A3025 RMK A01 T00951026  RH  043%=      5-min Rain = 0
KQU1 151819Z 34006KT 10/M03 A3025 RMK A01 T00951028  RH  042%=      5-min Rain = 0
KQU1 151820Z 35005KT 09/M02 A3025 RMK A01 T00941023  RH  044%=      5-min Rain = 0
KQU1 151821Z 31006KT 10/M03 A3025 RMK A01 T00951032  RH  041%=      5-min Rain = 0
KQU1 151822Z 29004KT 09/M03 A3025 RMK A01 T00941029  RH  042%=      5-min Rain = 0
KQU1 151823Z 02004KT 10/M02 A3025 RMK A01 T00961024  RH  043%=      5-min Rain = 0
KQU1 151824Z 04003KT 10/M03 A3025 RMK A01 T00971027  RH  042%=      5-min Rain = 0
KQU1 151825Z 35003KT 10/M03 A3025 RMK A01 T00981025  RH  042%=      5-min Rain = 0
KQU1 151826Z 31006KT 10/M03 A3025 RMK A01 T00981025  RH  042%=      5-min Rain = 0
KQU1 151827Z 30004KT 10/M02 A3025 RMK A01 T00981023  RH  043%=      5-min Rain = 0
KQU1 151828Z 35003KT 10/M02 A3025 RMK A01 T00991022  RH  043%=      5-min Rain = 0
KQU1 151829Z 02007KT 10/M03 A3025 RMK A01 T01001027  RH  041%=      5-min Rain = 0
KQU1 151830Z 02006KT 10/M03 A3025 RMK A01 T01001029  RH  040%=      5-min Rain = 0
KQU1 151831Z 04003KT 10/M03 A3025 RMK A01 T01001028  RH  041%=      5-min Rain = 0
KQU1 151832Z 00004KT 10/M03 A3024 RMK A01 T00991031  RH  040%=      5-min Rain = 0
KQU1 151833Z 01005KT 10/M03 A3024 RMK A01 T00991025  RH  042%=      5-min Rain = 0
KQU1 151834Z 35005KT 10/M03 A3024 RMK A01 T00981032  RH  040%=      5-min Rain = 0
KQU1 151835Z 34003KT 10/M03 A3024 RMK A01 T00971033  RH  040%=      5-min Rain = 0
KQU1 151836Z 02004KT 10/M03 A3024 RMK A01 T00981025  RH  042%=      5-min Rain = 0
KQU1 151837Z 03007KT 10/M03 A3024 RMK A01 T00991029  RH  041%=      5-min Rain = 0
KQU1 151838Z 03007KT 10/M03 A3024 RMK A01 T00981030  RH  040%=      5-min Rain = 0
KQU1 151839Z 02007KT 10/M03 A3024 RMK A01 T00971028  RH  041%=      5-min Rain = 0
KQU1 151840Z 03006KT 10/M03 A3024 RMK A01 T00971031  RH  040%=      5-min Rain = 0
KQU1 151841Z 02005KT 10/M03 A3024 RMK A01 T00961032  RH  040%=      5-min Rain = 0
KQU1 151842Z 00003KT 10/M03 A3024 RMK A01 T00971031  RH  041%=      5-min Rain = 0
KQU1 151843Z 03003KT 10/M03 A3024 RMK A01 T00971030  RH  041%=      5-min Rain = 0
KQU1 151844Z 03002KT 10/M03 A3024 RMK A01 T00981028  RH  041%=      5-min Rain = 0
KQU1 151845Z 01004KT 10/M02 A3024 RMK A01 T00981023  RH  043%=      5-min Rain = 0
KQU1 151846Z 02004KT 10/M03 A3024 RMK A01 T00991026  RH  041%=      5-min Rain = 0
KQU1 151847Z 03003KT 10/M02 A3024 RMK A01 T01001024  RH  042%=      5-min Rain = 0
KQU1 151848Z 03003KT 10/M02 A3024 RMK A01 T01011023  RH  042%=      5-min Rain = 0
KQU1 151849Z 03006KT 10/M03 A3024 RMK A01 T01011029  RH  040%=      5-min Rain = 0
KQU1 151850Z 01006KT 10/M03 A3024 RMK A01 T01001033  RH  039%=      5-min Rain = 0
KQU1 151851Z 01006KT 10/M03 A3024 RMK A01 T01001030  RH  040%=      5-min Rain = 0
KQU1 151852Z 36005KT 10/M03 A3024 RMK A01 T01001031  RH  040%=      5-min Rain = 0
KQU1 151853Z 35006KT 10/M03 A3024 RMK A01 T01001033  RH  039%=      5-min Rain = 0
KQU1 151854Z 35008KT 10/M03 A3023 RMK A01 T01001026  RH  041%=      5-min Rain = 0
KQU1 151855Z 35006KT 10/M03 A3023 RMK A01 T01001026  RH  041%=      5-min Rain = 0
KQU1 151856Z 02005KT 10/M03 A3023 RMK A01 T01011029  RH  040%=      5-min Rain = 0
KQU1 151857Z 03004KT 10/M03 A3023 RMK A01 T01011034  RH  039%=      5-min Rain = 0
KQU1 151858Z 05004KT 10/M03 A3023 RMK A01 T01011033  RH  039%=      5-min Rain = 0
KQU1 151859Z 03003KT 10/M03 A3023 RMK A01 T01021028  RH  040%=      5-min Rain = 0
KQU1 151900Z 36003KT 10/M03 A3023 RMK A01 T01031034  RH  038%=      5-min Rain = 0
KQU1 151901Z 01004KT 10/M04 A3023 RMK A01 T01031039  RH  037%=      5-min Rain = 0
KQU1 151902Z 03003KT 10/M04 A3023 RMK A01 T01031036  RH  038%=      5-min Rain = 0
KQU1 151903Z 00002KT 10/M04 A3023 RMK A01 T01031035  RH  038%=      5-min Rain = 0
KQU1 151904Z 01002KT 10/M03 A3023 RMK A01 T01041032  RH  038%=      5-min Rain = 0
KQU1 151905Z 01004KT 11/M04 A3023 RMK A01 T01061036  RH  037%=      5-min Rain = 0
KQU1 151906Z 02003KT 11/M04 A3023 RMK A01 T01051040  RH  036%=      5-min Rain = 0
KQU1 151907Z 01005KT 11/M04 A3023 RMK A01 T01051036  RH  037%=      5-min Rain = 0
KQU1 151908Z 02007KT 11/M04 A3023 RMK A01 T01051035  RH  037%=      5-min Rain = 0
KQU1 151909Z 04006KT 10/M03 A3023 RMK A01 T01041031  RH  039%=      5-min Rain = 0
KQU1 151910Z 05006KT 10/M03 A3023 RMK A01 T01041030  RH  039%=      5-min Rain = 0
KQU1 151911Z 02007KT 11/M03 A3023 RMK A01 T01051028  RH  039%=      5-min Rain = 0
KQU1 151912Z 02006KT 10/M03 A3023 RMK A01 T01041030  RH  039%=      5-min Rain = 0
KQU1 151913Z 00004G9KT 11/M02 A3023 RMK A01 T01051022  RH  041%=      5-min Rain = 0
KQU1 151914Z 00006KT 11/M03 A3022 RMK A01 T01061031  RH  038%=      5-min Rain = 0
KQU1 151915Z 33006KT 11/M03 A3022 RMK A01 T01061025  RH  040%=      5-min Rain = 0
KQU1 151916Z 33004KT 11/M02 A3022 RMK A01 T01061023  RH  040%=      5-min Rain = 0
KQU1 151917Z 34005KT 11/M03 A3022 RMK A01 T01061029  RH  039%=      5-min Rain = 0
KQU1 151918Z 01004KT 11/M03 A3022 RMK A01 T01061033  RH  038%=      5-min Rain = 0
KQU1 151919Z 34002KT 11/M03 A3022 RMK A01 T01061027  RH  039%=      5-min Rain = 0
KQU1 151920Z 32004KT 11/M02 A3022 RMK A01 T01071024  RH  040%=      5-min Rain = 0
KQU1 151921Z 30006KT 11/M02 A3022 RMK A01 T01071021  RH  041%=      5-min Rain = 0
KQU1 151922Z 30007KT 11/M02 A3022 RMK A01 T01081021  RH  040%=      5-min Rain = 0
KQU1 151923Z 30006KT 11/M03 A3022 RMK A01 T01081026  RH  039%=      5-min Rain = 0
KQU1 151924Z 31006KT 11/M02 A3022 RMK A01 T01081023  RH  040%=      5-min Rain = 0
KQU1 151925Z 33005KT 11/M03 A3022 RMK A01 T01081030  RH  038%=      5-min Rain = 0
KQU1 151926Z 34005KT 11/M03 A3022 RMK A01 T01071032  RH  038%=      5-min Rain = 0
KQU1 151927Z 35004KT 11/M03 A3022 RMK A01 T01071030  RH  038%=      5-min Rain = 0
KQU1 151928Z 35004KT 11/M03 A3022 RMK A01 T01071027  RH  039%=      5-min Rain = 0
KQU1 151929Z 34003KT 11/M02 A3022 RMK A01 T01081021  RH  041%=      5-min Rain = 0
KQU1 151930Z 31007KT 11/M03 A3022 RMK A01 T01081025  RH  039%=      5-min Rain = 0
KQU1 151931Z 28003KT 11/M04 A3022 RMK A01 T01061035  RH  037%=      5-min Rain = 0
KQU1 151932Z 27002KT 11/M03 A3021 RMK A01 T01061030  RH  038%=      5-min Rain = 0
KQU1 151933Z 01003KT 11/M03 A3021 RMK A01 T01081025  RH  039%=      5-min Rain = 0
KQU1 151934Z 00004KT 11/M04 A3021 RMK A01 T01091035  RH  036%=      5-min Rain = 0
KQU1 151935Z 35005KT 11/M04 A3021 RMK A01 T01091035  RH  036%=      5-min Rain = 0
KQU1 151936Z 32005KT 11/M04 A3021 RMK A01 T01081037  RH  036%=      5-min Rain = 0
KQU1 151937Z 31005KT 11/M03 A3021 RMK A01 T01081034  RH  037%=      5-min Rain = 0
KQU1 151938Z 33007KT 11/M03 A3021 RMK A01 T01091030  RH  038%=      5-min Rain = 0
KQU1 151939Z 34006KT 11/M04 A3021 RMK A01 T01091036  RH  036%=      5-min Rain = 0
KQU1 151940Z 36007KT 11/M03 A3021 RMK A01 T01091033  RH  037%=      5-min Rain = 0
KQU1 151941Z 00007KT 11/M03 A3021 RMK A01 T01081032  RH  037%=      5-min Rain = 0
KQU1 151942Z 03005KT 11/M03 A3021 RMK A01 T01081028  RH  038%=      5-min Rain = 0
KQU1 151943Z 04005KT 11/M03 A3021 RMK A01 T01091027  RH  039%=      5-min Rain = 0
KQU1 151944Z 04006KT 11/M03 A3021 RMK A01 T01091032  RH  037%=      5-min Rain = 0
KQU1 151945Z 05004KT 11/M03 A3021 RMK A01 T01091030  RH  038%=      5-min Rain = 0
KQU1 151946Z 04004KT 11/M03 A3021 RMK A01 T01091028  RH  038%=      5-min Rain = 0
KQU1 151947Z 01004KT 11/M02 A3021 RMK A01 T01101022  RH  040%=      5-min Rain = 0
KQU1 151948Z 34004KT 11/M02 A3021 RMK A01 T01111024  RH  039%=      5-min Rain = 0
KQU1 151949Z 34007KT 11/M02 A302 RMK A01 T01111023  RH  039%=      5-min Rain = 0
KQU1 151950Z 34005KT 11/M03 A302 RMK A01 T01111032  RH  037%=      5-min Rain = 0
KQU1 151951Z 34004KT 11/M03 A302 RMK A01 T01111030  RH  037%=      5-min Rain = 0
KQU1 151952Z 35007KT 11/M02 A302 RMK A01 T01111024  RH  039%=      5-min Rain = 0
KQU1 151953Z 34006KT 11/M03 A302 RMK A01 T01111026  RH  038%=      5-min Rain = 0
KQU1 151954Z 35005KT 11/M02 A302 RMK A01 T01111024  RH  039%=      5-min Rain = 0
KQU1 151955Z 34004KT 11/M03 A302 RMK A01 T01111031  RH  037%=      5-min Rain = 0
KQU1 151956Z 34005KT 11/M04 A302 RMK A01 T01111036  RH  036%=      5-min Rain = 0
KQU1 151957Z 01001KT 11/M03 A302 RMK A01 T01101033  RH  037%=      5-min Rain = 0
KQU1 151958Z 00003KT 11/M03 A302 RMK A01 T01121031  RH  037%=      5-min Rain = 0
KQU1 151959Z 03003KT 11/M03 A302 RMK A01 T01131031  RH  036%=      5-min Rain = 0
KQU1 152000Z 02003KT 11/M03 A302 RMK A01 T01141032  RH  036%=      5-min Rain = 0
KQU1 152001Z 02002KT 12/M03 A302 RMK A01 T01151033  RH  036%=      5-min Rain = 0
KQU1 152002Z 34007KT 12/M02 A302 RMK A01 T01151023  RH  038%=      5-min Rain = 0
KQU1 152003Z 34006KT 11/M03 A302 RMK A01 T01141029  RH  037%=      5-min Rain = 0
KQU1 152004Z 34004KT 11/M03 A302 RMK A01 T01131031  RH  037%=      5-min Rain = 0
KQU1 152005Z 34003KT 11/M03 A302 RMK A01 T01121030  RH  037%=      5-min Rain = 0
KQU1 152006Z 33002KT 11/M02 A302 RMK A01 T01131018  RH  040%=      5-min Rain = 0
KQU1 152007Z 01005KT 11/M03 A302 RMK A01 T01141027  RH  037%=      5-min Rain = 0
KQU1 152008Z 01002KT 11/M03 A3019 RMK A01 T01141030  RH  036%=      5-min Rain = 0
KQU1 152009Z 06001KT 11/M03 A3019 RMK A01 T01141032  RH  036%=      5-min Rain = 0
KQU1 152010Z 01002KT 12/M03 A3019 RMK A01 T01151028  RH  037%=      5-min Rain = 0
KQU1 152011Z 01002KT 12/M03 A3019 RMK A01 T01151027  RH  037%=      5-min Rain = 0
KQU1 152012Z 35006KT 12/M03 A3019 RMK A01 T01151032  RH  036%=      5-min Rain = 0
KQU1 152013Z 35007KT 11/M04 A3019 RMK A01 T01141038  RH  034%=      5-min Rain = 0
KQU1 152014Z 01005KT 11/M04 A3019 RMK A01 T01141040  RH  034%=      5-min Rain = 0
KQU1 152015Z 00004KT 11/M04 A3019 RMK A01 T01141036  RH  035%=      5-min Rain = 0
KQU1 152016Z 02004G9KT 12/M03 A3019 RMK A01 T01151028  RH  037%=      5-min Rain = 0
KQU1 152017Z 01007KT 12/M03 A3019 RMK A01 T01161030  RH  036%=      5-min Rain = 0
KQU1 152018Z 03006KT 12/M03 A3019 RMK A01 T01161032  RH  035%=      5-min Rain = 0
KQU1 152019Z 01006KT 12/M03 A3019 RMK A01 T01161031  RH  036%=      5-min Rain = 0
KQU1 152020Z 01005KT 12/M04 A3019 RMK A01 T01151039  RH  034%=      5-min Rain = 0
KQU1 152021Z 32002KT 11/M04 A3019 RMK A01 T01141040  RH  034%=      5-min Rain = 0
KQU1 152022Z 26001KT 11/M04 A3019 RMK A01 T01141039  RH  034%=      5-min Rain = 0
KQU1 152023Z 27002KT 12/M03 A3019 RMK A01 T01151031  RH  036%=      5-min Rain = 0
KQU1 152024Z 01003KT 12/M04 A3019 RMK A01 T01161036  RH  034%=      5-min Rain = 0
KQU1 152025Z 02004KT 12/M04 A3019 RMK A01 T01171036  RH  034%=      5-min Rain = 0
KQU1 152026Z 03005KT 12/M03 A3018 RMK A01 T01181031  RH  035%=      5-min Rain = 0
KQU1 152027Z 02006KT 12/M03 A3018 RMK A01 T01181031  RH  035%=      5-min Rain = 0
KQU1 152028Z 34004KT 12/M02 A3018 RMK A01 T01171024  RH  037%=      5-min Rain = 0
KQU1 152029Z 33004KT 12/M03 A3018 RMK A01 T01181027  RH  036%=      5-min Rain = 0
KQU1 152030Z 00001KT 12/M04 A3019 RMK A01 T01161041  RH  033%=      5-min Rain = 0
KQU1 152031Z 01000KT 12/M03 A3018 RMK A01 T01171030  RH  036%=      5-min Rain = 0
KQU1 152032Z 13000KT 12/M02 A3018 RMK A01 T01201023  RH  037%=      5-min Rain = 0
KQU1 152033Z 29001KT 12/M04 A3018 RMK A01 T01201036  RH  034%=      5-min Rain = 0
KQU1 152034Z 32002KT 12/M03 A3018 RMK A01 T01211029  RH  035%=      5-min Rain = 0
KQU1 152035Z 00003KT 12/M03 A3018 RMK A01 T01201031  RH  035%=      5-min Rain = 0
KQU1 152036Z 35003KT 12/M03 A3018 RMK A01 T01211028  RH  035%=      5-min Rain = 0
KQU1 152037Z 30003KT 12/M03 A3018 RMK A01 T01201030  RH  035%=      5-min Rain = 0
KQU1 152038Z 06004KT 12/M03 A3018 RMK A01 T01211029  RH  035%=      5-min Rain = 0
KQU1 152039Z 04006KT 12/M03 A3018 RMK A01 T01201031  RH  035%=      5-min Rain = 0
KQU1 152040Z 04004KT 12/M04 A3018 RMK A01 T01191036  RH  034%=      5-min Rain = 0
KQU1 152041Z 07004KT 12/M03 A3018 RMK A01 T01191031  RH  035%=      5-min Rain = 0
KQU1 152042Z 12005KT 12/M03 A3018 RMK A01 T01191033  RH  034%=      5-min Rain = 0
KQU1 152043Z 09005KT 12/M03 A3018 RMK A01 T01191028  RH  036%=      5-min Rain = 0
KQU1 152044Z 13006KT 12/M02 A3017 RMK A01 T01201020  RH  038%=      5-min Rain = 0
KQU1 152045Z 25005KT 12/M02 A3018 RMK A01 T01221024  RH  036%=      5-min Rain = 0
KQU1 152046Z 28005KT 12/M03 A3018 RMK A01 T01221029  RH  035%=      5-min Rain = 0
KQU1 152047Z 27003KT 12/M04 A3018 RMK A01 T01211036  RH  033%=      5-min Rain = 0
KQU1 152048Z 27001KT 12/M03 A3018 RMK A01 T01211033  RH  034%=      5-min Rain = 0
KQU1 152049Z 35003KT 12/M03 A3017 RMK A01 T01231028  RH  035%=      5-min Rain = 0
KQU1 152050Z 35007KT 12/M03 A3017 RMK A01 T01241028  RH  035%=      5-min Rain = 0
KQU1 152051Z 34007KT 12/M03 A3017 RMK A01 T01221030  RH  034%=      5-min Rain = 0
KQU1 152052Z 00006KT 12/M03 A3017 RMK A01 T01201030  RH  035%=      5-min Rain = 0
KQU1 152053Z 36005KT 12/M03 A3017 RMK A01 T01191032  RH  035%=      5-min Rain = 0
KQU1 152054Z 36003KT 12/M03 A3017 RMK A01 T01181028  RH  036%=      5-min Rain = 0
KQU1 152055Z 35003KT 12/M03 A3017 RMK A01 T01181028  RH  036%=      5-min Rain = 0
KQU1 152056Z 33002KT 12/M04 A3017 RMK A01 T01181036  RH  034%=      5-min Rain = 0
KQU1 152057Z 34002KT 12/M03 A3017 RMK A01 T01181029  RH  036%=      5-min Rain = 0
KQU1 152058Z 36003KT 12/M03 A3017 RMK A01 T01191027  RH  036%=      5-min Rain = 0
KQU1 152059Z 31005KT 12/M04 A3017 RMK A01 T01201035  RH  034%=      5-min Rain = 0
KQU1 152100Z 29008KT 12/M04 A3017 RMK A01 T01201039  RH  033%=      5-min Rain = 0
KQU1 152101Z 30008KT 12/M04 A3017 RMK A01 T01201038  RH  033%=      5-min Rain = 0
KQU1 152102Z 30007KT 12/M04 A3017 RMK A01 T01211035  RH  033%=      5-min Rain = 0
KQU1 152103Z 30006KT 12/M04 A3017 RMK A01 T01211036  RH  033%=      5-min Rain = 0
KQU1 152104Z 30006KT 12/M03 A3017 RMK A01 T01221026  RH  036%=      5-min Rain = 0
KQU1 152105Z 32008KT 12/M03 A3017 RMK A01 T01241032  RH  034%=      5-min Rain = 0
KQU1 152106Z 33006KT 12/M04 A3017 RMK A01 T01221038  RH  033%=      5-min Rain = 0
KQU1 152107Z 33005KT 12/M03 A3017 RMK A01 T01211034  RH  034%=      5-min Rain = 0
KQU1 152108Z 30005KT 12/M04 A3017 RMK A01 T01211038  RH  033%=      5-min Rain = 0
KQU1 152109Z 26001KT 12/M04 A3017 RMK A01 T01211042  RH  032%=      5-min Rain = 0
KQU1 152110Z 29002KT 12/M03 A3017 RMK A01 T01231029  RH  034%=      5-min Rain = 0
KQU1 152111Z 30006KT 13/M03 A3017 RMK A01 T01261026  RH  035%=      5-min Rain = 0
KQU1 152112Z 31004KT 13/M03 A3017 RMK A01 T01251028  RH  034%=      5-min Rain = 0
KQU1 152113Z 28005KT 13/M03 A3017 RMK A01 T01251028  RH  034%=      5-min Rain = 0
KQU1 152114Z 29005KT 13/M03 A3017 RMK A01 T01251030  RH  034%=      5-min Rain = 0
KQU1 152115Z 29007KT 13/M03 A3017 RMK A01 T01251031  RH  034%=      5-min Rain = 0
KQU1 152116Z 28006KT 12/M03 A3017 RMK A01 T01241031  RH  034%=      5-min Rain = 0
KQU1 152117Z 29006KT 12/M03 A3017 RMK A01 T01231033  RH  034%=      5-min Rain = 0
KQU1 152118Z 32006KT 12/M03 A3017 RMK A01 T01231030  RH  034%=      5-min Rain = 0
KQU1 152119Z 34006KT 12/M03 A3017 RMK A01 T01221029  RH  035%=      5-min Rain = 0
KQU1 152120Z 30007KT 12/M03 A3016 RMK A01 T01221029  RH  035%=      5-min Rain = 0
KQU1 152121Z 30007KT 12/M03 A3016 RMK A01 T01231026  RH  035%=      5-min Rain = 0
KQU1 152122Z 30003KT 12/M03 A3017 RMK A01 T01221033  RH  034%=      5-min Rain = 0
KQU1 152123Z 34002KT 12/M03 A3017 RMK A01 T01221030  RH  034%=      5-min Rain = 0
KQU1 152124Z 35002KT 12/M04 A3017 RMK A01 T01231037  RH  033%=      5-min Rain = 0
KQU1 152125Z 35000KT 12/M04 A3017 RMK A01 T01241037  RH  032%=      5-min Rain = 0
KQU1 152126Z 30000KT 13/M04 A3016 RMK A01 T01261036  RH  032%=      5-min Rain = 0
KQU1 152127Z 03000KT 13/M03 A3016 RMK A01 T01271027  RH  034%=      5-min Rain = 0
KQU1 152128Z 03003KT 13/M04 A3017 RMK A01 T01291036  RH  032%=      5-min Rain = 0
KQU1 152129Z 35002KT 13/M03 A3016 RMK A01 T01271031  RH  033%=      5-min Rain = 0
KQU1 152130Z 35004KT 13/M03 A3016 RMK A01 T01271031  RH  033%=      5-min Rain = 0
KQU1 152131Z 35004KT 13/M03 A3016 RMK A01 T01261032  RH  033%=      5-min Rain = 0
KQU1 152132Z 34003KT 13/M03 A3016 RMK A01 T01261027  RH  034%=      5-min Rain = 0
KQU1 152133Z 34004KT 13/M04 A3016 RMK A01 T01261035  RH  032%=      5-min Rain = 0
KQU1 152134Z 33004KT 13/M03 A3016 RMK A01 T01251034  RH  033%=      5-min Rain = 0
KQU1 152135Z 31003KT 12/M04 A3016 RMK A01 T01241037  RH  032%=      5-min Rain = 0
KQU1 152136Z 31002KT 12/M03 A3016 RMK A01 T01241032  RH  034%=      5-min Rain = 0
KQU1 152137Z 31001KT 13/M04 A3016 RMK A01 T01251036  RH  032%=      5-min Rain = 0
KQU1 152138Z 32002KT 12/M04 A3016 RMK A01 T01241037  RH  032%=      5-min Rain = 0
KQU1 152139Z 35003KT 13/M03 A3016 RMK A01 T01261027  RH  034%=      5-min Rain = 0
KQU1 152140Z 01004KT 13/M03 A3016 RMK A01 T01271033  RH  033%=      5-min Rain = 0
KQU1 152141Z 34004KT 13/M03 A3016 RMK A01 T01261031  RH  033%=      5-min Rain = 0
KQU1 152142Z 36003KT 13/M03 A3016 RMK A01 T01251032  RH  033%=      5-min Rain = 0
KQU1 152143Z 01004KT 13/M03 A3016 RMK A01 T01251032  RH  033%=      5-min Rain = 0
KQU1 152144Z 01001KT 13/M03 A3016 RMK A01 T01261029  RH  034%=      5-min Rain = 0
KQU1 152145Z 03002KT 13/M03 A3016 RMK A01 T01271031  RH  033%=      5-min Rain = 0
KQU1 152146Z 04000KT 13/M03 A3016 RMK A01 T01281032  RH  033%=      5-min Rain = 0
KQU1 152147Z 00000KT 13/M03 A3016 RMK A01 T01291031  RH  033%=      5-min Rain = 0
KQU1 152148Z 35001KT 13/M03 A3015 RMK A01 T01301031  RH  033%=      5-min Rain = 0
KQU1 152149Z 05001KT 13/M03 A3015 RMK A01 T01311027  RH  033%=      5-min Rain = 0
KQU1 152150Z 04002KT 13/M03 A3015 RMK A01 T01321028  RH  033%=      5-min Rain = 0
KQU1 152151Z 03003KT 13/M03 A3015 RMK A01 T01311031  RH  032%=      5-min Rain = 0
KQU1 152152Z 34004KT 13/M03 A3015 RMK A01 T01301025  RH  034%=      5-min Rain = 0
KQU1 152153Z 36004KT 13/M03 A3015 RMK A01 T01281031  RH  033%=      5-min Rain = 0
KQU1 152154Z 35002KT 13/M03 A3015 RMK A01 T01271033  RH  033%=      5-min Rain = 0
KQU1 152155Z 30001KT 13/M03 A3015 RMK A01 T01271034  RH  032%=      5-min Rain = 0
KQU1 152156Z 34001KT 13/M03 A3015 RMK A01 T01281030  RH  033%=      5-min Rain = 0
KQU1 152157Z 36001KT 13/M03 A3015 RMK A01 T01281034  RH  032%=      5-min Rain = 0
KQU1 152158Z 32002KT 13/M03 A3015 RMK A01 T01291025  RH  034%=      5-min Rain = 0
KQU1 152159Z 34001KT 13/M03 A3015 RMK A01 T01301029  RH  033%=      5-min Rain = 0
KQU1 152200Z 29004KT 13/M03 A3015 RMK A01 T01311026  RH  034%=      5-min Rain = 0
KQU1 152201Z 28003KT 13/M03 A3015 RMK A01 T01311027  RH  033%=      5-min Rain = 0
KQU1 152202Z 26006KT 13/M02 A3015 RMK A01 T01321020  RH  035%=      5-min Rain = 0
KQU1 152203Z 32008KT 13/M02 A3015 RMK A01 T01321022  RH  034%=      5-min Rain = 0
KQU1 152204Z 35004KT 13/M03 A3015 RMK A01 T01301025  RH  034%=      5-min Rain = 0
KQU1 152205Z 35006KT 13/M03 A3015 RMK A01 T01291025  RH  034%=      5-min Rain = 0
KQU1 152206Z 32006KT 13/M02 A3015 RMK A01 T01291023  RH  035%=      5-min Rain = 0
KQU1 152207Z 31004KT 13/M03 A3015 RMK A01 T01271032  RH  033%=      5-min Rain = 0
KQU1 152208Z 27002KT 13/M03 A3015 RMK A01 T01271030  RH  034%=      5-min Rain = 0
KQU1 152209Z 28002KT 13/M02 A3015 RMK A01 T01281024  RH  035%=      5-min Rain = 0
KQU1 152210Z 32004KT 13/M03 A3015 RMK A01 T01301026  RH  034%=      5-min Rain = 0
KQU1 152211Z 36005KT 13/M03 A3015 RMK A01 T01291032  RH  033%=      5-min Rain = 0
KQU1 152212Z 33004KT 13/M03 A3015 RMK A01 T01281030  RH  033%=      5-min Rain = 0
KQU1 152213Z 31003KT 13/M03 A3015 RMK A01 T01281027  RH  034%=      5-min Rain = 0
KQU1 152214Z 35001KT 13/M03 A3015 RMK A01 T01281029  RH  033%=      5-min Rain = 0
KQU1 152215Z 34001KT 13/M02 A3014 RMK A01 T01301023  RH  035%=      5-min Rain = 0
KQU1 152216Z 34002KT 13/M03 A3014 RMK A01 T01301029  RH  033%=      5-min Rain = 0
KQU1 152217Z 01002KT 13/M03 A3014 RMK A01 T01301028  RH  033%=      5-min Rain = 0
KQU1 152218Z 34002KT 13/M03 A3014 RMK A01 T01301026  RH  034%=      5-min Rain = 0
KQU1 152219Z 01002KT 13/M03 A3014 RMK A01 T01301028  RH  033%=      5-min Rain = 0
KQU1 152220Z 01002KT 13/M02 A3014 RMK A01 T01321020  RH  035%=      5-min Rain = 0
KQU1 152221Z 02003KT 13/M03 A3014 RMK A01 T01321029  RH  033%=      5-min Rain = 0
KQU1 152222Z 03006KT 13/M02 A3014 RMK A01 T01311024  RH  034%=      5-min Rain = 0
KQU1 152223Z 02007KT 13/M03 A3014 RMK A01 T01301026  RH  034%=      5-min Rain = 0
KQU1 152224Z 03005KT 13/M03 A3014 RMK A01 T01281027  RH  034%=      5-min Rain = 0
KQU1 152225Z 05004KT 13/M03 A3014 RMK A01 T01281026  RH  034%=      5-min Rain = 0
KQU1 152226Z 02003KT 13/M02 A3014 RMK A01 T01281018  RH  036%=      5-min Rain = 0
KQU1 152227Z 00003KT 13/M02 A3014 RMK A01 T01291020  RH  035%=      5-min Rain = 0
KQU1 152228Z 35003KT 13/M02 A3014 RMK A01 T01291018  RH  036%=      5-min Rain = 0
KQU1 152229Z 35003KT 13/M02 A3014 RMK A01 T01291017  RH  036%=      5-min Rain = 0
KQU1 152230Z 02002KT 13/M02 A3014 RMK A01 T01291020  RH  036%=      5-min Rain = 0
KQU1 152231Z 04001KT 13/M02 A3014 RMK A01 T01301018  RH  036%=      5-min Rain = 0
KQU1 152232Z 05003KT 13/M03 A3014 RMK A01 T01311027  RH  033%=      5-min Rain = 0
KQU1 152233Z 06002KT 13/M03 A3014 RMK A01 T01301029  RH  033%=      5-min Rain = 0
KQU1 152234Z 04002KT 13/M03 A3014 RMK A01 T01301031  RH  033%=      5-min Rain = 0
KQU1 152235Z 03001KT 13/M03 A3014 RMK A01 T01291030  RH  033%=      5-min Rain = 0
KQU1 152236Z 00000KT 13/M03 A3014 RMK A01 T01301029  RH  033%=      5-min Rain = 0
KQU1 152237Z 10000KT 13/M03 A3014 RMK A01 T01321027  RH  033%=      5-min Rain = 0
KQU1 152238Z 04002KT 13/M03 A3014 RMK A01 T01331027  RH  033%=      5-min Rain = 0
KQU1 152239Z 04003KT 13/M03 A3014 RMK A01 T01331029  RH  032%=      5-min Rain = 0
KQU1 152240Z 04002KT 13/M03 A3014 RMK A01 T01321027  RH  033%=      5-min Rain = 0
KQU1 152241Z 03001KT 13/M02 A3014 RMK A01 T01321024  RH  034%=      5-min Rain = 0
KQU1 152242Z 34003KT 13/M03 A3014 RMK A01 T01321027  RH  033%=      5-min Rain = 0
KQU1 152243Z 34007KT 13/M03 A3013 RMK A01 T01301026  RH  034%=      5-min Rain = 0
KQU1 152244Z 00005KT 13/M02 A3013 RMK A01 T01301022  RH  035%=      5-min Rain = 0
KQU1 152245Z 36004KT 13/M03 A3013 RMK A01 T01301026  RH  034%=      5-min Rain = 0
KQU1 152246Z 36003KT 13/M02 A3013 RMK A01 T01301023  RH  034%=      5-min Rain = 0
KQU1 152247Z 36005KT 13/M03 A3013 RMK A01 T01301028  RH  033%=      5-min Rain = 0
KQU1 152248Z 34003KT 13/M03 A3013 RMK A01 T01291030  RH  033%=      5-min Rain = 0
KQU1 152249Z 01004KT 13/M03 A3013 RMK A01 T01291032  RH  033%=      5-min Rain = 0
KQU1 152250Z 02003KT 13/M03 A3013 RMK A01 T01281031  RH  033%=      5-min Rain = 0
KQU1 152251Z 02003KT 13/M03 A3013 RMK A01 T01291032  RH  032%=      5-min Rain = 0
KQU1 152252Z 01002KT 13/M04 A3013 RMK A01 T01291035  RH  032%=      5-min Rain = 0
KQU1 152253Z 34001KT 13/M03 A3013 RMK A01 T01301032  RH  032%=      5-min Rain = 0
KQU1 152254Z 36002KT 13/M03 A3013 RMK A01 T01311032  RH  032%=      5-min Rain = 0
KQU1 152255Z 34002KT 13/M03 A3013 RMK A01 T01311031  RH  032%=      5-min Rain = 0
KQU1 152256Z 36002KT 13/M03 A3013 RMK A01 T01321026  RH  033%=      5-min Rain = 0
KQU1 152257Z 34004KT 13/M03 A3013 RMK A01 T01321029  RH  033%=      5-min Rain = 0
KQU1 152258Z 35005KT 13/M03 A3013 RMK A01 T01311030  RH  032%=      5-min Rain = 0
KQU1 152259Z 33001KT 13/M03 A3013 RMK A01 T01301029  RH  033%=      5-min Rain = 0
KQU1 152300Z 35002KT 13/M03 A3013 RMK A01 T01301033  RH  032%=      5-min Rain = 0
KQU1 152301Z 34001KT 13/M03 A3013 RMK A01 T01311032  RH  032%=      5-min Rain = 0
KQU1 152302Z 36001KT 13/M03 A3013 RMK A01 T01331028  RH  033%=      5-min Rain = 0
KQU1 152303Z 05002KT 13/M03 A3013 RMK A01 T01341031  RH  032%=      5-min Rain = 0
KQU1 152304Z 05002KT 13/M03 A3013 RMK A01 T01341026  RH  033%=      5-min Rain = 0
KQU1 152305Z 07002KT 14/M02 A3013 RMK A01 T01351024  RH  033%=      5-min Rain = 0
KQU1 152306Z 06002KT 14/M03 A3013 RMK A01 T01351030  RH  032%=      5-min Rain = 0
KQU1 152307Z 02002KT 13/M02 A3013 RMK A01 T01341023  RH  034%=      5-min Rain = 0
KQU1 152308Z 02004KT 13/M03 A3013 RMK A01 T01341027  RH  033%=      5-min Rain = 0
KQU1 152309Z 02003KT 13/M03 A3013 RMK A01 T01331028  RH  033%=      5-min Rain = 0
KQU1 152310Z 02002KT 13/M02 A3013 RMK A01 T01321022  RH  034%=      5-min Rain = 0
KQU1 152311Z 04002KT 13/M03 A3013 RMK A01 T01321029  RH  032%=      5-min Rain = 0
KQU1 152312Z 04001KT 13/M03 A3013 RMK A01 T01331032  RH  032%=      5-min Rain = 0
KQU1 152313Z 05001KT 13/M03 A3013 RMK A01 T01331031  RH  032%=      5-min Rain = 0
KQU1 152314Z 04000KT 13/M03 A3013 RMK A01 T01341025  RH  033%=      5-min Rain = 0
KQU1 152315Z 08000KT 14/M02 A3013 RMK A01 T01351024  RH  033%=      5-min Rain = 0
KQU1 152316Z 10000KT 14/M03 A3013 RMK A01 T01351026  RH  032%=      5-min Rain = 0
KQU1 152317Z 00000KT 14/M03 A3013 RMK A01 T01361028  RH  032%=      5-min Rain = 0
KQU1 152318Z 18000KT 14/M03 A3012 RMK A01 T01371026  RH  032%=      5-min Rain = 0
KQU1 152319Z 18001KT 14/M03 A3012 RMK A01 T01381028  RH  031%=      5-min Rain = 0
KQU1 152320Z 19001KT 14/M03 A3012 RMK A01 T01381031  RH  031%=      5-min Rain = 0
KQU1 152321Z 12003KT 14/M02 A3012 RMK A01 T01381020  RH  033%=      5-min Rain = 0
KQU1 152322Z 10000KT 14/M03 A3012 RMK A01 T01381026  RH  032%=      5-min Rain = 0
KQU1 152323Z 03001KT 14/M03 A3012 RMK A01 T01381026  RH  032%=      5-min Rain = 0
KQU1 152324Z 04001KT 14/M03 A3012 RMK A01 T01381029  RH  031%=      5-min Rain = 0
KQU1 152325Z 05001KT 14/M03 A3012 RMK A01 T01371028  RH  032%=      5-min Rain = 0
KQU1 152326Z 07002KT 14/M03 A3012 RMK A01 T01371029  RH  032%=      5-min Rain = 0
KQU1 152327Z 08002KT 14/M03 A3012 RMK A01 T01351030  RH  032%=      5-min Rain = 0
KQU1 152328Z 09002KT 13/M03 A3012 RMK A01 T01341031  RH  032%=      5-min Rain = 0
KQU1 152329Z 13001KT 13/M03 A3012 RMK A01 T01331030  RH  032%=      5-min Rain = 0
KQU1 152330Z 12001KT 13/M03 A3012 RMK A01 T01321031  RH  032%=      5-min Rain = 0
KQU1 152331Z 06002KT 13/M03 A3012 RMK A01 T01321029  RH  033%=      5-min Rain = 0
KQU1 152332Z 06002KT 13/M03 A3012 RMK A01 T01311030  RH  032%=      5-min Rain = 0
KQU1 152333Z 08002KT 13/M03 A3012 RMK A01 T01311032  RH  032%=      5-min Rain = 0
KQU1 152334Z 07003KT 13/M02 A3012 RMK A01 T01321020  RH  035%=      5-min Rain = 0
KQU1 152335Z 07003KT 13/M01 A3012 RMK A01 T01321014  RH  036%=      5-min Rain = 0
KQU1 152336Z 07003KT 13/M03 A3012 RMK A01 T01311030  RH  033%=      5-min Rain = 0
KQU1 152337Z 06002KT 13/M03 A3012 RMK A01 T01311031  RH  032%=      5-min Rain = 0
KQU1 152338Z 07002KT 13/M03 A3012 RMK A01 T01311028  RH  033%=      5-min Rain = 0
KQU1 152339Z 07002KT 13/M03 A3012 RMK A01 T01311027  RH  033%=      5-min Rain = 0
KQU1 152340Z 09001KT 13/M03 A3012 RMK A01 T01311028  RH  033%=      5-min Rain = 0
KQU1 152341Z 09001KT 13/M03 A3012 RMK A01 T01311025  RH  034%=      5-min Rain = 0
KQU1 152342Z 08002KT 13/M03 A3012 RMK A01 T01321026  RH  033%=      5-min Rain = 0
KQU1 152343Z 09001KT 13/M03 A3012 RMK A01 T01321026  RH  034%=      5-min Rain = 0
KQU1 152344Z 07001KT 13/M03 A3012 RMK A01 T01321025  RH  034%=      5-min Rain = 0
KQU1 152345Z 06002KT 13/M03 A3012 RMK A01 T01311028  RH  033%=      5-min Rain = 0
KQU1 152346Z 05002KT 13/M02 A3012 RMK A01 T01311021  RH  035%=      5-min Rain = 0
KQU1 152347Z 06002KT 13/M02 A3012 RMK A01 T01311022  RH  035%=      5-min Rain = 0
KQU1 152348Z 07001KT 13/M02 A3012 RMK A01 T01311024  RH  034%=      5-min Rain = 0
KQU1 152349Z 07002KT 13/M03 A3012 RMK A01 T01301027  RH  033%=      5-min Rain = 0
KQU1 152350Z 06002KT 13/M02 A3012 RMK A01 T01301023  RH  034%=      5-min Rain = 0
KQU1 152351Z 06002KT 13/M02 A3012 RMK A01 T01301017  RH  036%=      5-min Rain = 0
KQU1 152352Z 07002KT 13/M03 A3012 RMK A01 T01291025  RH  034%=      5-min Rain = 0
KQU1 152353Z 08002KT 13/M02 A3012 RMK A01 T01291023  RH  035%=      5-min Rain = 0
KQU1 152354Z 07002KT 13/M02 A3012 RMK A01 T01281024  RH  035%=      5-min Rain = 0
KQU1 152355Z 07002KT 13/M02 A3012 RMK A01 T01281020  RH  036%=      5-min Rain = 0
KQU1 152356Z 07002KT 13/M02 A3012 RMK A01 T01271023  RH  035%=      5-min Rain = 0
KQU1 152357Z 07003KT 13/M02 A3012 RMK A01 T01271018  RH  037%=      5-min Rain = 0
KQU1 152358Z 07002KT 13/M02 A3012 RMK A01 T01261015  RH  037%=      5-min Rain = 0
KQU1 152359Z 07002KT 13/M01 A3012 RMK A01 T01261012  RH  038%=      5-min Rain = 0
KQU1 160000Z 08002KT 13/M01 A3012 RMK A01 T01261008  RH  040%=      5-min Rain = 0
KQU1 160001Z 09002KT 13/M01 A3012 RMK A01 T01261010  RH  039%=      5-min Rain = 0
KQU1 160002Z 09002KT 13/M02 A3012 RMK A01 T01251016  RH  037%=      5-min Rain = 0
KQU1 160003Z 09002KT 13/M02 A3012 RMK A01 T01251015  RH  038%=      5-min Rain = 0
KQU1 160004Z 08002KT 13/M01 A3012 RMK A01 T01251014  RH  038%=      5-min Rain = 0
KQU1 160005Z 08002KT 12/M01 A3012 RMK A01 T01241013  RH  039%=      5-min Rain = 0
KQU1 160006Z 09002KT 12/M01 A3012 RMK A01 T01241014  RH  038%=      5-min Rain = 0
KQU1 160007Z 10002KT 13/M02 A3012 RMK A01 T01251015  RH  038%=      5-min Rain = 0
KQU1 160008Z 10002KT 13/M02 A3012 RMK A01 T01251016  RH  038%=      5-min Rain = 0
KQU1 160009Z 11002KT 12/M01 A3012 RMK A01 T01241013  RH  038%=      5-min Rain = 0
KQU1 160010Z 12003KT 12/M01 A3012 RMK A01 T01241014  RH  038%=      5-min Rain = 0
KQU1 160011Z 12002KT 12/M01 A3012 RMK A01 T01241012  RH  039%=      5-min Rain = 0
KQU1 160012Z 11003KT 12/M01 A3012 RMK A01 T01231009  RH  040%=      5-min Rain = 0
KQU1 160013Z 10003KT 12/M01 A3012 RMK A01 T01231010  RH  040%=      5-min Rain = 0
KQU1 160014Z 11003KT 12/M01 A3012 RMK A01 T01231009  RH  040%=      5-min Rain = 0
KQU1 160015Z 10003KT 12/M01 A3012 RMK A01 T01221009  RH  040%=      5-min Rain = 0
KQU1 160016Z 10003KT 12/M01 A3012 RMK A01 T01201010  RH  041%=      5-min Rain = 0
KQU1 160017Z 11003KT 12/M01 A3012 RMK A01 T01171011  RH  041%=      5-min Rain = 0
KQU1 160018Z 11003KT 12/M01 A3012 RMK A01 T01151011  RH  042%=      5-min Rain = 0
KQU1 160019Z 11003KT 11/M01 A3012 RMK A01 T01121010  RH  043%=      5-min Rain = 0
KQU1 160020Z 11004KT 11/M01 A3012 RMK A01 T01111008  RH  044%=      5-min Rain = 0
KQU1 160021Z 12003KT 11/M01 A3012 RMK A01 T01101009  RH  044%=      5-min Rain = 0
KQU1 160022Z 13004KT 11/M01 A3012 RMK A01 T01081012  RH  043%=      5-min Rain = 0
KQU1 160023Z 13004KT 11/M01 A3012 RMK A01 T01071011  RH  044%=      5-min Rain = 0
KQU1 160024Z 13004KT 11/M01 A3012 RMK A01 T01061009  RH  045%=      5-min Rain = 0
KQU1 160025Z 13004KT 11/M01 A3012 RMK A01 T01051006  RH  046%=      5-min Rain = 0
KQU1 160026Z 13004KT 10/M00 A3012 RMK A01 T01031004  RH  047%=      5-min Rain = 0
KQU1 160027Z 13005KT 10/M01 A3012 RMK A01 T01021005  RH  048%=      5-min Rain = 0
KQU1 160028Z 13005KT 10/M01 A3012 RMK A01 T00991006  RH  048%=      5-min Rain = 0
KQU1 160029Z 13005KT 10/M01 A3012 RMK A01 T00971005  RH  049%=      5-min Rain = 0
KQU1 160030Z 13004KT 10/M00 A3012 RMK A01 T00961003  RH  050%=      5-min Rain = 0
KQU1 160031Z 13004KT 10/M00 A3012 RMK A01 T00951002  RH  051%=      5-min Rain = 0
KQU1 160032Z 13004KT 09/M00 A3011 RMK A01 T00941002  RH  051%=      5-min Rain = 0
KQU1 160033Z 13004KT 09/M00 A3011 RMK A01 T00931002  RH  051%=      5-min Rain = 0
KQU1 160034Z 13004KT 09/M00 A3011 RMK A01 T00931001  RH  052%=      5-min Rain = 0
KQU1 160035Z 13004KT 09/M00 A3012 RMK A01 T00931002  RH  052%=      5-min Rain = 0
KQU1 160036Z 13004KT 09/M00 A3012 RMK A01 T00921004  RH  051%=      5-min Rain = 0
KQU1 160037Z 13004KT 09/M00 A3012 RMK A01 T00931003  RH  051%=      5-min Rain = 0
KQU1 160038Z 13005KT 09/M00 A3012 RMK A01 T00931003  RH  051%=      5-min Rain = 0
KQU1 160039Z 13004KT 09/M00 A3012 RMK A01 T00931002  RH  052%=      5-min Rain = 0
KQU1 160040Z 13004KT 09/M00 A3012 RMK A01 T00931002  RH  052%=      5-min Rain = 0
KQU1 160041Z 14004KT 09/M00 A3012 RMK A01 T00921002  RH  052%=      5-min Rain = 0
KQU1 160042Z 14003KT 09/00 A3012 RMK A01 T00920004  RH  054%=      5-min Rain = 0
KQU1 160043Z 14004KT 09/00 A3012 RMK A01 T00900004  RH  055%=      5-min Rain = 0
KQU1 160044Z 14004KT 09/00 A3012 RMK A01 T00890003  RH  055%=      5-min Rain = 0
KQU1 160045Z 15004KT 09/01 A3012 RMK A01 T00870005  RH  056%=      5-min Rain = 0
KQU1 160046Z 16004KT 09/01 A3012 RMK A01 T00850007  RH  058%=      5-min Rain = 0
KQU1 160047Z 16004KT 08/01 A3012 RMK A01 T00840007  RH  058%=      5-min Rain = 0
KQU1 160048Z 16004KT 08/01 A3012 RMK A01 T00840007  RH  058%=      5-min Rain = 0
KQU1 160049Z 17004KT 08/01 A3011 RMK A01 T00840008  RH  059%=      5-min Rain = 0
KQU1 160050Z 18004KT 08/01 A3012 RMK A01 T00800006  RH  059%=      5-min Rain = 0
KQU1 160051Z 18004KT 08/01 A3012 RMK A01 T00750005  RH  061%=      5-min Rain = 0
KQU1 160052Z 17003KT 07/00 A3012 RMK A01 T00730004  RH  061%=      5-min Rain = 0
KQU1 160053Z 17004KT 07/00 A3012 RMK A01 T00730004  RH  062%=      5-min Rain = 0
KQU1 160054Z 18003KT 07/00 A3012 RMK A01 T00720004  RH  062%=      5-min Rain = 0
KQU1 160055Z 18003KT 07/00 A3012 RMK A01 T00710004  RH  062%=      5-min Rain = 0
KQU1 160056Z 18004KT 07/01 A3012 RMK A01 T00710005  RH  063%=      5-min Rain = 0
KQU1 160057Z 19004KT 07/01 A3012 RMK A01 T00710005  RH  063%=      5-min Rain = 0
KQU1 160058Z 18004KT 07/00 A3012 RMK A01 T00700004  RH  063%=      5-min Rain = 0
KQU1 160059Z 19003KT 07/00 A3012 RMK A01 T00700004  RH  063%=      5-min Rain = 0
KQU1 160100Z 20003KT 07/01 A3012 RMK A01 T00700005  RH  063%=      5-min Rain = 0
KQU1 160101Z 20003KT 07/01 A3012 RMK A01 T00680005  RH  064%=      5-min Rain = 0
KQU1 160102Z 20003KT 07/00 A3012 RMK A01 T00670004  RH  064%=      5-min Rain = 0
KQU1 160103Z 20003KT 07/00 A3012 RMK A01 T00670004  RH  064%=      5-min Rain = 0
KQU1 160104Z 19003KT 07/00 A3012 RMK A01 T00650004  RH  065%=      5-min Rain = 0
KQU1 160105Z 20003KT 06/00 A3012 RMK A01 T00640004  RH  065%=      5-min Rain = 0
KQU1 160106Z 20004KT 06/00 A3012 RMK A01 T00630004  RH  066%=      5-min Rain = 0
KQU1 160107Z 20003KT 06/00 A3012 RMK A01 T00620004  RH  066%=      5-min Rain = 0
KQU1 160108Z 20003KT 06/00 A3012 RMK A01 T00610004  RH  067%=      5-min Rain = 0
KQU1 160109Z 20003KT 06/01 A3012 RMK A01 T00600005  RH  068%=      5-min Rain = 0
KQU1 160110Z 19003KT 06/00 A3012 RMK A01 T00600004  RH  068%=      5-min Rain = 0
KQU1 160111Z 20003KT 06/00 A3012 RMK A01 T00600004  RH  068%=      5-min Rain = 0
KQU1 160112Z 20003KT 06/00 A3012 RMK A01 T00590004  RH  068%=      5-min Rain = 0
KQU1 160113Z 20004KT 06/01 A3012 RMK A01 T00590005  RH  068%=      5-min Rain = 0
KQU1 160114Z 21004KT 06/01 A3012 RMK A01 T00580005  RH  068%=      5-min Rain = 0
KQU1 160115Z 20003KT 06/01 A3012 RMK A01 T00580005  RH  069%=      5-min Rain = 0
KQU1 160116Z 21003KT 06/00 A3012 RMK A01 T00580004  RH  068%=      5-min Rain = 0
KQU1 160117Z 20003KT 06/00 A3012 RMK A01 T00600003  RH  067%=      5-min Rain = 0
KQU1 160118Z 21003KT 06/00 A3012 RMK A01 T00620003  RH  066%=      5-min Rain = 0
KQU1 160119Z 21003KT 06/01 A3012 RMK A01 T00610005  RH  067%=      5-min Rain = 0
KQU1 160120Z 21003KT 06/01 A3012 RMK A01 T00590006  RH  069%=      5-min Rain = 0
KQU1 160121Z 22003KT 06/01 A3012 RMK A01 T00580007  RH  070%=      5-min Rain = 0
KQU1 160122Z 22003KT 06/01 A3012 RMK A01 T00570008  RH  071%=      5-min Rain = 0
KQU1 160123Z 21003KT 06/01 A3012 RMK A01 T00560007  RH  071%=      5-min Rain = 0
KQU1 160124Z 22003KT 06/01 A3012 RMK A01 T00550007  RH  071%=      5-min Rain = 0
KQU1 160125Z 22004KT 05/01 A3012 RMK A01 T00540007  RH  072%=      5-min Rain = 0
KQU1 160126Z 22004KT 05/01 A3012 RMK A01 T00540008  RH  072%=      5-min Rain = 0
KQU1 160127Z 21004KT 05/01 A3012 RMK A01 T00530008  RH  073%=      5-min Rain = 0
KQU1 160128Z 21004KT 05/01 A3012 RMK A01 T00520008  RH  073%=      5-min Rain = 0
KQU1 160129Z 22004KT 05/01 A3012 RMK A01 T00520006  RH  072%=      5-min Rain = 0
KQU1 160130Z 21004KT 05/01 A3012 RMK A01 T00520006  RH  072%=      5-min Rain = 0
KQU1 160131Z 21004KT 05/01 A3012 RMK A01 T00520006  RH  072%=      5-min Rain = 0
KQU1 160132Z 22004KT 05/01 A3012 RMK A01 T00510005  RH  072%=      5-min Rain = 0
KQU1 160133Z 21004KT 05/01 A3012 RMK A01 T00520005  RH  072%=      5-min Rain = 0
KQU1 160134Z 21004KT 05/01 A3012 RMK A01 T00510005  RH  072%=      5-min Rain = 0
KQU1 160135Z 21004KT 05/00 A3012 RMK A01 T00510004  RH  071%=      5-min Rain = 0
KQU1 160136Z 21004KT 05/00 A3012 RMK A01 T00520004  RH  071%=      5-min Rain = 0
KQU1 160137Z 21005KT 05/01 A3012 RMK A01 T00520005  RH  072%=      5-min Rain = 0
KQU1 160138Z 21005KT 05/01 A3012 RMK A01 T00500007  RH  073%=      5-min Rain = 0
KQU1 160139Z 21004KT 05/01 A3012 RMK A01 T00490007  RH  074%=      5-min Rain = 0
KQU1 160140Z 21005KT 05/01 A3012 RMK A01 T00490006  RH  074%=      5-min Rain = 0
KQU1 160141Z 21005KT 05/01 A3012 RMK A01 T00490005  RH  073%=      5-min Rain = 0
KQU1 160142Z 21005KT 05/01 A3012 RMK A01 T00500005  RH  073%=      5-min Rain = 0
KQU1 160143Z 20005KT 05/00 A3012 RMK A01 T00500004  RH  072%=      5-min Rain = 0
KQU1 160144Z 21005KT 05/00 A3012 RMK A01 T00510004  RH  072%=      5-min Rain = 0
KQU1 160145Z 21005KT 05/00 A3012 RMK A01 T00510004  RH  072%=      5-min Rain = 0
KQU1 160146Z 21005KT 05/00 A3012 RMK A01 T00510004  RH  071%=      5-min Rain = 0
KQU1 160147Z 22005KT 05/00 A3012 RMK A01 T00510004  RH  072%=      5-min Rain = 0
KQU1 160148Z 22005KT 05/01 A3012 RMK A01 T00500006  RH  073%=      5-min Rain = 0
KQU1 160149Z 21005KT 05/01 A3012 RMK A01 T00490006  RH  074%=      5-min Rain = 0
KQU1 160150Z 21005KT 05/01 A3012 RMK A01 T00480006  RH  074%=      5-min Rain = 0
KQU1 160151Z 21005KT 05/01 A3012 RMK A01 T00470006  RH  074%=      5-min Rain = 0
KQU1 160152Z 21006KT 05/01 A3012 RMK A01 T00480005  RH  074%=      5-min Rain = 0
KQU1 160153Z 21006KT 05/00 A3012 RMK A01 T00480004  RH  073%=      5-min Rain = 0
KQU1 160154Z 21006KT 05/00 A3012 RMK A01 T00480004  RH  073%=      5-min Rain = 0
KQU1 160155Z 21007KT 05/00 A3012 RMK A01 T00480004  RH  073%=      5-min Rain = 0
KQU1 160156Z 21007KT 05/00 A3012 RMK A01 T00470004  RH  074%=      5-min Rain = 0
KQU1 160157Z 21007KT 05/00 A3012 RMK A01 T00470004  RH  074%=      5-min Rain = 0
KQU1 160158Z 21007KT 05/00 A3012 RMK A01 T00460003  RH  074%=      5-min Rain = 0
KQU1 160159Z 21007KT 05/00 A3012 RMK A01 T00460003  RH  074%=      5-min Rain = 0
KQU1 160200Z 21007KT 05/00 A3012 RMK A01 T00460003  RH  074%=      5-min Rain = 0
KQU1 160201Z 21007KT 05/00 A3012 RMK A01 T00460003  RH  073%=      5-min Rain = 0
KQU1 160202Z 20007KT 05/00 A3012 RMK A01 T00460003  RH  074%=      5-min Rain = 0
KQU1 160203Z 20007KT 05/00 A3012 RMK A01 T00460004  RH  074%=      5-min Rain = 0
KQU1 160204Z 20007KT 05/00 A3012 RMK A01 T00470004  RH  074%=      5-min Rain = 0
KQU1 160205Z 20006KT 05/00 A3012 RMK A01 T00470003  RH  073%=      5-min Rain = 0
KQU1 160206Z 20006KT 05/00 A3012 RMK A01 T00470003  RH  073%=      5-min Rain = 0
KQU1 160207Z 20006KT 05/00 A3012 RMK A01 T00470002  RH  073%=      5-min Rain = 0
KQU1 160208Z 20006KT 05/00 A3012 RMK A01 T00480002  RH  072%=      5-min Rain = 0
KQU1 160209Z 20006KT 05/00 A3012 RMK A01 T00480001  RH  072%=      5-min Rain = 0
KQU1 160210Z 20006KT 05/00 A3012 RMK A01 T00480001  RH  071%=      5-min Rain = 0
KQU1 160211Z 20006KT 05/00 A3012 RMK A01 T00490002  RH  071%=      5-min Rain = 0
KQU1 160212Z 20007KT 05/00 A3012 RMK A01 T00490002  RH  071%=      5-min Rain = 0
KQU1 160213Z 20007KT 05/00 A3012 RMK A01 T00490002  RH  071%=      5-min Rain = 0
KQU1 160214Z 20007KT 05/00 A3012 RMK A01 T00490002  RH  071%=      5-min Rain = 0
KQU1 160215Z 20006KT 05/00 A3012 RMK A01 T00490001  RH  071%=      5-min Rain = 0
KQU1 160216Z 20006KT 05/00 A3012 RMK A01 T00490001  RH  071%=      5-min Rain = 0
KQU1 160217Z 20007KT 05/00 A3012 RMK A01 T00490001  RH  071%=      5-min Rain = 0
KQU1 160218Z 20007KT 05/00 A3012 RMK A01 T00480001  RH  071%=      5-min Rain = 0
KQU1 160219Z 20007KT 05/00 A3012 RMK A01 T00480001  RH  071%=      5-min Rain = 0
KQU1 160220Z 20007KT 05/00 A3012 RMK A01 T00480001  RH  071%=      5-min Rain = 0
KQU1 160221Z 20007KT 05/00 A3012 RMK A01 T00480001  RH  071%=      5-min Rain = 0
KQU1 160222Z 20007KT 05/00 A3012 RMK A01 T00480001  RH  071%=      5-min Rain = 0
KQU1 160223Z 20007KT 05/00 A3012 RMK A01 T00480001  RH  071%=      5-min Rain = 0
KQU1 160224Z 20006KT 05/00 A3012 RMK A01 T00480001  RH  071%=      5-min Rain = 0
KQU1 160225Z 20006KT 05/00 A3012 RMK A01 T00480001  RH  072%=      5-min Rain = 0
KQU1 160226Z 20006KT 05/00 A3012 RMK A01 T00480001  RH  071%=      5-min Rain = 0
KQU1 160227Z 20006KT 05/M00 A3012 RMK A01 T00481001  RH  071%=      5-min Rain = 0
KQU1 160228Z 20006KT 05/M00 A3012 RMK A01 T00491001  RH  070%=      5-min Rain = 0
KQU1 160229Z 20006KT 05/M00 A3012 RMK A01 T00501001  RH  070%=      5-min Rain = 0
KQU1 160230Z 20006KT 05/M00 A3012 RMK A01 T00501001  RH  070%=      5-min Rain = 0
KQU1 160231Z 20006KT 05/M00 A3012 RMK A01 T00511001  RH  069%=      5-min Rain = 0
KQU1 160232Z 20006KT 05/M00 A3012 RMK A01 T00511001  RH  069%=      5-min Rain = 0
KQU1 160233Z 20006KT 05/M00 A3012 RMK A01 T00511001  RH  069%=      5-min Rain = 0
KQU1 160234Z 20007KT 05/M00 A3012 RMK A01 T00511001  RH  069%=      5-min Rain = 0
KQU1 160235Z 20007KT 05/M00 A3012 RMK A01 T00511001  RH  069%=      5-min Rain = 0
KQU1 160236Z 20007KT 05/M00 A3012 RMK A01 T00511001  RH  069%=      5-min Rain = 0
KQU1 160237Z 20007KT 05/M00 A3012 RMK A01 T00511001  RH  069%=      5-min Rain = 0
KQU1 160238Z 20007KT 05/M00 A3013 RMK A01 T00511001  RH  069%=      5-min Rain = 0
KQU1 160239Z 20007KT 05/M00 A3013 RMK A01 T00511001  RH  069%=      5-min Rain = 0
KQU1 160240Z 20007KT 05/M00 A3013 RMK A01 T00521001  RH  069%=      5-min Rain = 0
KQU1 160241Z 20006KT 05/M00 A3013 RMK A01 T00531001  RH  068%=      5-min Rain = 0
KQU1 160242Z 20006KT 05/00 A3013 RMK A01 T00530000  RH  069%=      5-min Rain = 0
KQU1 160243Z 19007KT 05/M00 A3013 RMK A01 T00531001  RH  068%=      5-min Rain = 0
KQU1 160244Z 19007KT 06/M00 A3013 RMK A01 T00551001  RH  067%=      5-min Rain = 0
KQU1 160245Z 19007KT 06/M00 A3013 RMK A01 T00561002  RH  066%=      5-min Rain = 0
KQU1 160246Z 19007KT 06/M00 A3013 RMK A01 T00571002  RH  066%=      5-min Rain = 0
KQU1 160247Z 19006KT 06/M00 A3013 RMK A01 T00581002  RH  065%=      5-min Rain = 0
KQU1 160248Z 20006KT 06/M00 A3013 RMK A01 T00591001  RH  065%=      5-min Rain = 0
KQU1 160249Z 20006KT 06/M00 A3013 RMK A01 T00581001  RH  065%=      5-min Rain = 0
KQU1 160250Z 20007KT 06/M00 A3013 RMK A01 T00581002  RH  065%=      5-min Rain = 0
KQU1 160251Z 20007KT 06/M00 A3013 RMK A01 T00571002  RH  065%=      5-min Rain = 0
KQU1 160252Z 19007KT 06/M00 A3013 RMK A01 T00571002  RH  066%=      5-min Rain = 0
KQU1 160253Z 20007KT 06/M00 A3013 RMK A01 T00561002  RH  066%=      5-min Rain = 0
KQU1 160254Z 20007KT 06/M00 A3013 RMK A01 T00551003  RH  066%=      5-min Rain = 0
KQU1 160255Z 20007KT 06/M00 A3013 RMK A01 T00551002  RH  066%=      5-min Rain = 0
KQU1 160256Z 20007KT 06/M00 A3013 RMK A01 T00551003  RH  067%=      5-min Rain = 0
KQU1 160257Z 19007KT 05/M00 A3013 RMK A01 T00541002  RH  067%=      5-min Rain = 0
KQU1 160258Z 19007KT 05/M00 A3013 RMK A01 T00541003  RH  067%=      5-min Rain = 0
KQU1 160259Z 19007KT 05/M00 A3013 RMK A01 T00541004  RH  066%=      5-min Rain = 0
KQU1 160300Z 20006KT 05/M00 A3013 RMK A01 T00541003  RH  067%=      5-min Rain = 0
KQU1 160301Z 20007KT 05/M00 A3013 RMK A01 T00531003  RH  067%=      5-min Rain = 0
KQU1 160302Z 20007KT 05/M00 A3013 RMK A01 T00531002  RH  068%=      5-min Rain = 0
KQU1 160303Z 20007KT 05/M00 A3013 RMK A01 T00521002  RH  068%=      5-min Rain = 0
KQU1 160304Z 20007KT 05/M00 A3013 RMK A01 T00521003  RH  068%=      5-min Rain = 0
KQU1 160305Z 20007KT 05/M00 A3013 RMK A01 T00521003  RH  068%=      5-min Rain = 0
KQU1 160306Z 20007KT 05/M00 A3013 RMK A01 T00531003  RH  067%=      5-min Rain = 0
KQU1 160307Z 20007KT 05/M00 A3013 RMK A01 T00531003  RH  067%=      5-min Rain = 0
KQU1 160308Z 20007KT 05/M00 A3013 RMK A01 T00531003  RH  067%=      5-min Rain = 0
KQU1 160309Z 20007KT 05/M00 A3013 RMK A01 T00531002  RH  068%=      5-min Rain = 0
KQU1 160310Z 20007KT 05/M00 A3013 RMK A01 T00521002  RH  068%=      5-min Rain = 0
KQU1 160311Z 20007KT 05/M00 A3013 RMK A01 T00521002  RH  068%=      5-min Rain = 0
KQU1 160312Z 20007KT 05/M00 A3013 RMK A01 T00521002  RH  068%=      5-min Rain = 0
KQU1 160313Z 20007KT 05/M00 A3013 RMK A01 T00511003  RH  068%=      5-min Rain = 0
KQU1 160314Z 20008KT 05/M00 A3013 RMK A01 T00511003  RH  068%=      5-min Rain = 0
KQU1 160315Z 20008KT 05/M00 A3013 RMK A01 T00511002  RH  068%=      5-min Rain = 0
KQU1 160316Z 20007KT 05/M00 A3013 RMK A01 T00511003  RH  068%=      5-min Rain = 0
KQU1 160317Z 20007KT 05/M00 A3013 RMK A01 T00511002  RH  068%=      5-min Rain = 0
KQU1 160318Z 20007KT 05/M00 A3013 RMK A01 T00511003  RH  068%=      5-min Rain = 0
KQU1 160319Z 20007KT 05/M00 A3013 RMK A01 T00511003  RH  068%=      5-min Rain = 0
KQU1 160320Z 20007KT 05/M00 A3013 RMK A01 T00501003  RH  068%=      5-min Rain = 0
KQU1 160321Z 20007KT 05/M00 A3013 RMK A01 T00501003  RH  068%=      5-min Rain = 0
KQU1 160322Z 20007KT 05/M00 A3013 RMK A01 T00491004  RH  069%=      5-min Rain = 0
KQU1 160323Z 20007KT 05/M00 A3013 RMK A01 T00481004  RH  069%=      5-min Rain = 0
KQU1 160324Z 20007KT 05/M00 A3013 RMK A01 T00481004  RH  069%=      5-min Rain = 0
KQU1 160325Z 20007KT 05/M00 A3013 RMK A01 T00471004  RH  069%=      5-min Rain = 0
KQU1 160326Z 20007KT 05/M00 A3013 RMK A01 T00471004  RH  070%=      5-min Rain = 0
KQU1 160327Z 20007KT 05/M00 A3013 RMK A01 T00471004  RH  070%=      5-min Rain = 0
KQU1 160328Z 20007KT 05/M00 A3013 RMK A01 T00471004  RH  070%=      5-min Rain = 0
KQU1 160329Z 20007KT 05/M00 A3013 RMK A01 T00471004  RH  070%=      5-min Rain = 0
KQU1 160330Z 20007KT 05/M00 A3013 RMK A01 T00471003  RH  070%=      5-min Rain = 0
KQU1 160331Z 20007KT 05/M00 A3013 RMK A01 T00471003  RH  070%=      5-min Rain = 0
KQU1 160332Z 20007KT 05/M00 A3013 RMK A01 T00481003  RH  070%=      5-min Rain = 0
KQU1 160333Z 20007KT 05/M00 A3013 RMK A01 T00471004  RH  069%=      5-min Rain = 0
KQU1 160334Z 20007KT 05/M00 A3013 RMK A01 T00471004  RH  069%=      5-min Rain = 0
KQU1 160335Z 20007KT 05/M00 A3013 RMK A01 T00471004  RH  069%=      5-min Rain = 0
KQU1 160336Z 20007KT 05/M00 A3013 RMK A01 T00461004  RH  070%=      5-min Rain = 0
KQU1 160337Z 20007KT 05/M01 A3013 RMK A01 T00461005  RH  070%=      5-min Rain = 0
KQU1 160338Z 20007KT 05/M01 A3013 RMK A01 T00461005  RH  070%=      5-min Rain = 0
KQU1 160339Z 20006KT 05/M01 A3013 RMK A01 T00451005  RH  070%=      5-min Rain = 0
KQU1 160340Z 20006KT 05/M01 A3013 RMK A01 T00451005  RH  070%=      5-min Rain = 0
KQU1 160341Z 20006KT 05/M01 A3013 RMK A01 T00461006  RH  069%=      5-min Rain = 0
KQU1 160342Z 20006KT 05/M01 A3013 RMK A01 T00461006  RH  069%=      5-min Rain = 0
KQU1 160343Z 20006KT 05/M01 A3013 RMK A01 T00461006  RH  069%=      5-min Rain = 0
KQU1 160344Z 20006KT 05/M01 A3013 RMK A01 T00461006  RH  069%=      5-min Rain = 0
KQU1 160345Z 20006KT 05/M01 A3013 RMK A01 T00451007  RH  069%=      5-min Rain = 0
KQU1 160346Z 20005KT 05/M01 A3013 RMK A01 T00451006  RH  069%=      5-min Rain = 0
KQU1 160347Z 20005KT 05/M01 A3013 RMK A01 T00451007  RH  069%=      5-min Rain = 0
KQU1 160348Z 20005KT 05/M01 A3013 RMK A01 T00451007  RH  069%=      5-min Rain = 0
KQU1 160349Z 20005KT 05/M01 A3013 RMK A01 T00451008  RH  069%=      5-min Rain = 0
KQU1 160350Z 20005KT 05/M01 A3013 RMK A01 T00451008  RH  069%=      5-min Rain = 0
KQU1 160351Z 20005KT 05/M01 A3013 RMK A01 T00451008  RH  068%=      5-min Rain = 0
KQU1 160352Z 20005KT 05/M01 A3013 RMK A01 T00461008  RH  068%=      5-min Rain = 0
KQU1 160353Z 20005KT 05/M01 A3013 RMK A01 T00461008  RH  068%=      5-min Rain = 0
KQU1 160354Z 20005KT 05/M01 A3013 RMK A01 T00471008  RH  068%=      5-min Rain = 0
KQU1 160355Z 20005KT 05/M01 A3013 RMK A01 T00481008  RH  067%=      5-min Rain = 0
KQU1 160356Z 21005KT 05/M01 A3013 RMK A01 T00491008  RH  067%=      5-min Rain = 0
KQU1 160357Z 21004KT 05/M01 A3013 RMK A01 T00491007  RH  067%=      5-min Rain = 0
KQU1 160358Z 21004KT 05/M01 A3013 RMK A01 T00481008  RH  067%=      5-min Rain = 0
KQU1 160359Z 22004KT 05/M01 A3013 RMK A01 T00481008  RH  067%=      5-min Rain = 0
KQU1 160400Z 23004KT 05/M01 A3013 RMK A01 T00471007  RH  068%=      5-min Rain = 0
KQU1 160401Z 23004KT 05/M01 A3013 RMK A01 T00461007  RH  069%=      5-min Rain = 0
KQU1 160402Z 23004KT 04/M01 A3013 RMK A01 T00441006  RH  070%=      5-min Rain = 0
KQU1 160403Z 23004KT 04/M01 A3013 RMK A01 T00431006  RH  071%=      5-min Rain = 0
KQU1 160404Z 23004KT 04/M01 A3013 RMK A01 T00411006  RH  071%=      5-min Rain = 0
KQU1 160405Z 23004KT 04/M01 A3013 RMK A01 T00401006  RH  072%=      5-min Rain = 0
KQU1 160406Z 23004KT 04/M01 A3013 RMK A01 T00391005  RH  073%=      5-min Rain = 0
KQU1 160407Z 23004KT 04/M00 A3012 RMK A01 T00381004  RH  074%=      5-min Rain = 0
KQU1 160408Z 22004KT 04/M00 A3012 RMK A01 T00371004  RH  074%=      5-min Rain = 0
KQU1 160409Z 23004KT 04/M00 A3012 RMK A01 T00361004  RH  075%=      5-min Rain = 0
KQU1 160410Z 23004KT 04/M00 A3012 RMK A01 T00361004  RH  075%=      5-min Rain = 0
KQU1 160411Z 23004KT 04/M00 A3012 RMK A01 T00351003  RH  076%=      5-min Rain = 0
KQU1 160412Z 23004KT 04/M00 A3012 RMK A01 T00351003  RH  076%=      5-min Rain = 0
KQU1 160413Z 24004KT 04/M00 A3012 RMK A01 T00351002  RH  077%=      5-min Rain = 0
KQU1 160414Z 24004KT 04/M00 A3012 RMK A01 T00351001  RH  077%=      5-min Rain = 0
KQU1 160415Z 24004KT 04/M00 A3012 RMK A01 T00361001  RH  077%=      5-min Rain = 0
KQU1 160416Z 24004KT 04/00 A3012 RMK A01 T003700-0  RH  077%=      5-min Rain = 0
KQU1 160417Z 24004KT 04/00 A3012 RMK A01 T00370000  RH  077%=      5-min Rain = 0
KQU1 160418Z 24003KT 04/00 A3012 RMK A01 T00370000  RH  077%=      5-min Rain = 0
KQU1 160419Z 25003KT 04/00 A3012 RMK A01 T00380000  RH  076%=      5-min Rain = 0
KQU1 160420Z 25003KT 04/00 A3012 RMK A01 T00380000  RH  076%=      5-min Rain = 0
KQU1 160421Z 25003KT 04/00 A3012 RMK A01 T00380000  RH  076%=      5-min Rain = 0
KQU1 160422Z 25003KT 04/00 A3012 RMK A01 T00380000  RH  076%=      5-min Rain = 0
KQU1 160423Z 25003KT 04/00 A3012 RMK A01 T003900-0  RH  076%=      5-min Rain = 0
KQU1 160424Z 26004KT 04/00 A3012 RMK A01 T003900-0  RH  076%=      5-min Rain = 0
KQU1 160425Z 26004KT 04/00 A3012 RMK A01 T003800-0  RH  076%=      5-min Rain = 0
KQU1 160426Z 26004KT 04/M00 A3012 RMK A01 T00371001  RH  076%=      5-min Rain = 0
KQU1 160427Z 26003KT 04/M00 A3012 RMK A01 T00361002  RH  076%=      5-min Rain = 0
KQU1 160428Z 26003KT 04/M00 A3012 RMK A01 T00351002  RH  077%=      5-min Rain = 0
KQU1 160429Z 26004KT 04/M00 A3012 RMK A01 T00351002  RH  077%=      5-min Rain = 0
KQU1 160430Z 26003KT 03/M00 A3012 RMK A01 T00341002  RH  077%=      5-min Rain = 0
KQU1 160431Z 26003KT 03/M00 A3012 RMK A01 T00341002  RH  077%=      5-min Rain = 0
KQU1 160432Z 26004KT 03/M00 A3012 RMK A01 T00341002  RH  077%=      5-min Rain = 0
KQU1 160433Z 27004KT 03/M00 A3012 RMK A01 T00341002  RH  077%=      5-min Rain = 0
KQU1 160434Z 26004KT 03/M00 A3012 RMK A01 T00341002  RH  077%=      5-min Rain = 0
KQU1 160435Z 26004KT 03/M00 A3012 RMK A01 T00341002  RH  077%=      5-min Rain = 0
KQU1 160436Z 26003KT 03/M00 A3012 RMK A01 T00341002  RH  077%=      5-min Rain = 0
KQU1 160437Z 26003KT 03/M00 A3012 RMK A01 T00341002  RH  077%=      5-min Rain = 0
KQU1 160438Z 25003KT 04/M00 A3012 RMK A01 T00351002  RH  077%=      5-min Rain = 0
KQU1 160439Z 25003KT 04/M00 A3012 RMK A01 T00351002  RH  077%=      5-min Rain = 0
KQU1 160440Z 25003KT 04/M00 A3012 RMK A01 T00361002  RH  076%=      5-min Rain = 0
KQU1 160441Z 25003KT 04/M00 A3012 RMK A01 T00361002  RH  076%=      5-min Rain = 0
KQU1 160442Z 24003KT 04/M00 A3012 RMK A01 T00361002  RH  076%=      5-min Rain = 0
KQU1 160443Z 23003KT 04/M00 A3012 RMK A01 T00361003  RH  076%=      5-min Rain = 0
KQU1 160444Z 23002KT 04/M00 A3011 RMK A01 T00361003  RH  076%=      5-min Rain = 0
KQU1 160445Z 23003KT 04/M00 A3011 RMK A01 T00351003  RH  076%=      5-min Rain = 0
KQU1 160446Z 23003KT 04/M00 A3011 RMK A01 T00351004  RH  076%=      5-min Rain = 0
KQU1 160447Z 23003KT 04/M00 A3011 RMK A01 T00351004  RH  076%=      5-min Rain = 0
KQU1 160448Z 23004KT 04/M00 A3011 RMK A01 T00351004  RH  076%=      5-min Rain = 0
KQU1 160449Z 23004KT 04/M00 A3011 RMK A01 T00351004  RH  076%=      5-min Rain = 0
KQU1 160450Z 23005KT 03/M01 A3011 RMK A01 T00341005  RH  075%=      5-min Rain = 0
KQU1 160451Z 23005KT 03/M01 A3011 RMK A01 T00341005  RH  075%=      5-min Rain = 0
KQU1 160452Z 24004KT 04/M01 A3011 RMK A01 T00351006  RH  075%=      5-min Rain = 0
KQU1 160453Z 24004KT 03/M01 A3011 RMK A01 T00341006  RH  075%=      5-min Rain = 0
KQU1 160454Z 24003KT 04/M01 A3011 RMK A01 T00351006  RH  075%=      5-min Rain = 0
KQU1 160455Z 25003KT 04/M01 A3011 RMK A01 T00351006  RH  075%=      5-min Rain = 0
KQU1 160456Z 25003KT 04/M01 A3011 RMK A01 T00361006  RH  074%=      5-min Rain = 0
KQU1 160457Z 25004KT 04/M01 A3011 RMK A01 T00361006  RH  074%=      5-min Rain = 0
KQU1 160458Z 25004KT 04/M01 A3011 RMK A01 T00361006  RH  074%=      5-min Rain = 0
KQU1 160459Z 26004KT 04/M01 A3011 RMK A01 T00371006  RH  073%=      5-min Rain = 0
KQU1 160500Z 26005KT 04/M01 A3011 RMK A01 T00381006  RH  073%=      5-min Rain = 0
KQU1 160501Z 26005KT 04/M01 A3011 RMK A01 T00411005  RH  072%=      5-min Rain = 0
KQU1 160502Z 26005KT 05/M01 A3011 RMK A01 T00451006  RH  070%=      5-min Rain = 0
KQU1 160503Z 26006KT 05/M01 A3011 RMK A01 T00481006  RH  068%=      5-min Rain = 0
KQU1 160504Z 26005KT 05/M01 A3011 RMK A01 T00491007  RH  067%=      5-min Rain = 0
KQU1 160505Z 26005KT 05/M01 A3011 RMK A01 T00501008  RH  066%=      5-min Rain = 0
KQU1 160506Z 25006KT 05/M01 A3011 RMK A01 T00501008  RH  066%=      5-min Rain = 0
KQU1 160507Z 25005KT 05/M01 A3011 RMK A01 T00501008  RH  066%=      5-min Rain = 0
KQU1 160508Z 25006KT 05/M01 A3011 RMK A01 T00491009  RH  066%=      5-min Rain = 0
KQU1 160509Z 25006KT 05/M01 A3011 RMK A01 T00491010  RH  066%=      5-min Rain = 0
KQU1 160510Z 25005KT 05/M01 A3011 RMK A01 T00491010  RH  065%=      5-min Rain = 0
KQU1 160511Z 25005KT 05/M01 A3011 RMK A01 T00491010  RH  065%=      5-min Rain = 0
KQU1 160512Z 24004KT 05/M01 A3011 RMK A01 T00481010  RH  066%=      5-min Rain = 0
KQU1 160513Z 24004KT 05/M01 A3011 RMK A01 T00481010  RH  066%=      5-min Rain = 0
KQU1 160514Z 24004KT 05/M01 A3011 RMK A01 T00481010  RH  066%=      5-min Rain = 0
KQU1 160515Z 24004KT 05/M01 A3011 RMK A01 T00491010  RH  066%=      5-min Rain = 0
KQU1 160516Z 24003KT 05/M01 A3011 RMK A01 T00501011  RH  065%=      5-min Rain = 0
KQU1 160517Z 25003KT 05/M01 A3011 RMK A01 T00511011  RH  064%=      5-min Rain = 0
KQU1 160518Z 25003KT 05/M01 A3011 RMK A01 T00511011  RH  064%=      5-min Rain = 0
KQU1 160519Z 26003KT 05/M01 A3011 RMK A01 T00501011  RH  065%=      5-min Rain = 0
KQU1 160520Z 26003KT 05/M01 A3011 RMK A01 T00491010  RH  065%=      5-min Rain = 0
KQU1 160521Z 26004KT 05/M01 A3011 RMK A01 T00481010  RH  066%=      5-min Rain = 0
KQU1 160522Z 26004KT 05/M01 A3011 RMK A01 T00471009  RH  067%=      5-min Rain = 0
KQU1 160523Z 26005KT 05/M01 A3011 RMK A01 T00461009  RH  067%=      5-min Rain = 0
KQU1 160524Z 26005KT 04/M01 A3011 RMK A01 T00441009  RH  068%=      5-min Rain = 0
KQU1 160525Z 26005KT 04/M01 A3011 RMK A01 T00431009  RH  069%=      5-min Rain = 0
KQU1 160526Z 26005KT 04/M01 A3011 RMK A01 T00431009  RH  069%=      5-min Rain = 0
KQU1 160527Z 26005KT 04/M01 A3011 RMK A01 T00421009  RH  069%=      5-min Rain = 0
KQU1 160528Z 25005KT 04/M01 A3011 RMK A01 T00421009  RH  069%=      5-min Rain = 0
KQU1 160529Z 25005KT 04/M01 A3011 RMK A01 T00421009  RH  069%=      5-min Rain = 0
KQU1 160530Z 25005KT 04/M01 A3011 RMK A01 T00431009  RH  069%=      5-min Rain = 0
KQU1 160531Z 25004KT 04/M01 A3011 RMK A01 T00431010  RH  069%=      5-min Rain = 0
KQU1 160532Z 25004KT 04/M01 A3011 RMK A01 T00431010  RH  068%=      5-min Rain = 0
KQU1 160533Z 25004KT 04/M01 A3011 RMK A01 T00441010  RH  068%=      5-min Rain = 0
KQU1 160534Z 25003KT 05/M01 A3011 RMK A01 T00451010  RH  067%=      5-min Rain = 0
KQU1 160535Z 25003KT 05/M01 A3011 RMK A01 T00461010  RH  067%=      5-min Rain = 0
KQU1 160536Z 25003KT 05/M01 A3011 RMK A01 T00471010  RH  067%=      5-min Rain = 0
KQU1 160537Z 25003KT 05/M01 A301 RMK A01 T00471010  RH  066%=      5-min Rain = 0
KQU1 160538Z 25003KT 05/M01 A301 RMK A01 T00481011  RH  066%=      5-min Rain = 0
KQU1 160539Z 25003KT 05/M01 A301 RMK A01 T00491011  RH  065%=      5-min Rain = 0
KQU1 160540Z 25003KT 05/M01 A301 RMK A01 T00491011  RH  065%=      5-min Rain = 0
KQU1 160541Z 25003KT 05/M01 A301 RMK A01 T00501011  RH  065%=      5-min Rain = 0
KQU1 160542Z 25003KT 05/M01 A301 RMK A01 T00501012  RH  064%=      5-min Rain = 0
KQU1 160543Z 25003KT 05/M01 A301 RMK A01 T00501012  RH  064%=      5-min Rain = 0
KQU1 160544Z 26003KT 05/M01 A301 RMK A01 T00491013  RH  064%=      5-min Rain = 0
KQU1 160545Z 26003KT 05/M01 A301 RMK A01 T00481013  RH  065%=      5-min Rain = 0
KQU1 160546Z 26004KT 05/M01 A301 RMK A01 T00481012  RH  065%=      5-min Rain = 0
KQU1 160547Z 26004KT 05/M01 A301 RMK A01 T00481012  RH  065%=      5-min Rain = 0
KQU1 160548Z 26004KT 05/M01 A301 RMK A01 T00481012  RH  065%=      5-min Rain = 0
KQU1 160549Z 26005KT 05/M01 A301 RMK A01 T00491012  RH  065%=      5-min Rain = 0
KQU1 160550Z 26005KT 05/M01 A301 RMK A01 T00491012  RH  065%=      5-min Rain = 0
KQU1 160551Z 26005KT 05/M01 A301 RMK A01 T00491012  RH  065%=      5-min Rain = 0
KQU1 160552Z 26005KT 05/M01 A301 RMK A01 T00481012  RH  065%=      5-min Rain = 0
KQU1 160553Z 26005KT 05/M01 A301 RMK A01 T00481011  RH  066%=      5-min Rain = 0
KQU1 160554Z 26006KT 05/M01 A301 RMK A01 T00471011  RH  066%=      5-min Rain = 0
KQU1 160555Z 26005KT 05/M01 A301 RMK A01 T00471011  RH  066%=      5-min Rain = 0
KQU1 160556Z 25005KT 05/M01 A301 RMK A01 T00471011  RH  066%=      5-min Rain = 0
KQU1 160557Z 25005KT 05/M01 A301 RMK A01 T00461010  RH  067%=      5-min Rain = 0
KQU1 160558Z 25005KT 05/M01 A301 RMK A01 T00461011  RH  066%=      5-min Rain = 0
KQU1 160559Z 25005KT 05/M01 A301 RMK A01 T00461011  RH  067%=      5-min Rain = 0

Page generated in 0.0319 seconds.